<?xml version="1.0" encoding="UTF-8" standalone="no" ?>
<gpx xmlns="http://www.topografix.com/GPX/1/1" xmlns:xsi="http://www.w3.org/2001/XMLSchema-instance" xsi:schemaLocation="http://www.topografix.com/GPX/1/1 http://www.topografix.com/GPX/1/1/gpx.xsd" version="1.1" creator="VisuGPX - https://www.visugpx.com">
  <metadata>
    <name>Claviers</name>
    <desc><![CDATA[
Belle promenade pour découvrir la campagne autour de Claviers et Bargemon]]></desc>
  </metadata>
  <trk>
    <name><![CDATA[Claviers_1]]></name>
    <trkseg>
      <trkpt lat="43.60156" lon="6.5626">
        <ele>406.1</ele>
        <time>2019-09-17T13:04:30Z</time>
      </trkpt>
      <trkpt lat="43.60161" lon="6.56259">
        <ele>402.7</ele>
        <time>2019-09-17T13:04:45Z</time>
      </trkpt>
      <trkpt lat="43.60164" lon="6.56264">
        <ele>403.8</ele>
        <time>2019-09-17T13:05:06Z</time>
      </trkpt>
      <trkpt lat="43.60162" lon="6.56258">
        <ele>403.9</ele>
        <time>2019-09-17T13:05:16Z</time>
      </trkpt>
      <trkpt lat="43.60164" lon="6.56251">
        <ele>402.9</ele>
        <time>2019-09-17T13:05:22Z</time>
      </trkpt>
      <trkpt lat="43.60168" lon="6.56247">
        <ele>402.8</ele>
        <time>2019-09-17T13:05:29Z</time>
      </trkpt>
      <trkpt lat="43.60173" lon="6.56246">
        <ele>402.1</ele>
        <time>2019-09-17T13:05:36Z</time>
      </trkpt>
      <trkpt lat="43.60177" lon="6.56251">
        <ele>400.9</ele>
        <time>2019-09-17T13:05:50Z</time>
      </trkpt>
      <trkpt lat="43.60172" lon="6.56261">
        <ele>400.3</ele>
        <time>2019-09-17T13:05:55Z</time>
      </trkpt>
      <trkpt lat="43.60171" lon="6.56268">
        <ele>399.8</ele>
        <time>2019-09-17T13:05:58Z</time>
      </trkpt>
      <trkpt lat="43.60176" lon="6.5627">
        <ele>399.3</ele>
        <time>2019-09-17T13:06:01Z</time>
      </trkpt>
      <trkpt lat="43.6018" lon="6.56273">
        <ele>399.1</ele>
        <time>2019-09-17T13:06:04Z</time>
      </trkpt>
      <trkpt lat="43.60181" lon="6.56279">
        <ele>398.4</ele>
        <time>2019-09-17T13:06:08Z</time>
      </trkpt>
      <trkpt lat="43.60186" lon="6.5628">
        <ele>397.2</ele>
        <time>2019-09-17T13:06:12Z</time>
      </trkpt>
      <trkpt lat="43.6019" lon="6.56276">
        <ele>394.5</ele>
        <time>2019-09-17T13:06:15Z</time>
      </trkpt>
      <trkpt lat="43.60194" lon="6.56269">
        <ele>393.4</ele>
        <time>2019-09-17T13:06:18Z</time>
      </trkpt>
      <trkpt lat="43.60195" lon="6.56262">
        <ele>392.3</ele>
        <time>2019-09-17T13:06:27Z</time>
      </trkpt>
      <trkpt lat="43.60193" lon="6.56255">
        <ele>391.4</ele>
        <time>2019-09-17T13:06:31Z</time>
      </trkpt>
      <trkpt lat="43.60192" lon="6.56247">
        <ele>389.9</ele>
        <time>2019-09-17T13:06:36Z</time>
      </trkpt>
      <trkpt lat="43.60192" lon="6.56239">
        <ele>388.8</ele>
        <time>2019-09-17T13:06:40Z</time>
      </trkpt>
      <trkpt lat="43.60194" lon="6.56232">
        <ele>388.5</ele>
        <time>2019-09-17T13:07:05Z</time>
      </trkpt>
      <trkpt lat="43.60197" lon="6.56227">
        <ele>388</ele>
        <time>2019-09-17T13:07:10Z</time>
      </trkpt>
      <trkpt lat="43.602" lon="6.5622">
        <ele>387.3</ele>
        <time>2019-09-17T13:07:14Z</time>
      </trkpt>
      <trkpt lat="43.60202" lon="6.56214">
        <ele>386.9</ele>
        <time>2019-09-17T13:07:18Z</time>
      </trkpt>
      <trkpt lat="43.60205" lon="6.56207">
        <ele>386.1</ele>
        <time>2019-09-17T13:07:27Z</time>
      </trkpt>
      <trkpt lat="43.60208" lon="6.56201">
        <ele>385.4</ele>
        <time>2019-09-17T13:07:33Z</time>
      </trkpt>
      <trkpt lat="43.60211" lon="6.56194">
        <ele>384.7</ele>
        <time>2019-09-17T13:07:39Z</time>
      </trkpt>
      <trkpt lat="43.60212" lon="6.56186">
        <ele>382.8</ele>
        <time>2019-09-17T13:07:46Z</time>
      </trkpt>
      <trkpt lat="43.60214" lon="6.5618">
        <ele>382</ele>
        <time>2019-09-17T13:07:49Z</time>
      </trkpt>
      <trkpt lat="43.60217" lon="6.56174">
        <ele>381.2</ele>
        <time>2019-09-17T13:07:52Z</time>
      </trkpt>
      <trkpt lat="43.60217" lon="6.56165">
        <ele>380</ele>
        <time>2019-09-17T13:07:57Z</time>
      </trkpt>
      <trkpt lat="43.60222" lon="6.56164">
        <ele>380</ele>
        <time>2019-09-17T13:08:18Z</time>
      </trkpt>
      <trkpt lat="43.60226" lon="6.56161">
        <ele>380.1</ele>
        <time>2019-09-17T13:08:24Z</time>
      </trkpt>
      <trkpt lat="43.60229" lon="6.56156">
        <ele>380.1</ele>
        <time>2019-09-17T13:08:30Z</time>
      </trkpt>
      <trkpt lat="43.60232" lon="6.5615">
        <ele>379.9</ele>
        <time>2019-09-17T13:08:48Z</time>
      </trkpt>
      <trkpt lat="43.60234" lon="6.56144">
        <ele>379.6</ele>
        <time>2019-09-17T13:08:52Z</time>
      </trkpt>
      <trkpt lat="43.60237" lon="6.56139">
        <ele>379.7</ele>
        <time>2019-09-17T13:08:56Z</time>
      </trkpt>
      <trkpt lat="43.60241" lon="6.56135">
        <ele>377.8</ele>
        <time>2019-09-17T13:09:13Z</time>
      </trkpt>
      <trkpt lat="43.60244" lon="6.56131">
        <ele>376.8</ele>
        <time>2019-09-17T13:09:22Z</time>
      </trkpt>
      <trkpt lat="43.60245" lon="6.56137">
        <ele>376.1</ele>
        <time>2019-09-17T13:09:38Z</time>
      </trkpt>
      <trkpt lat="43.60246" lon="6.56143">
        <ele>375.7</ele>
        <time>2019-09-17T13:09:56Z</time>
      </trkpt>
      <trkpt lat="43.60247" lon="6.5615">
        <ele>374.7</ele>
        <time>2019-09-17T13:10:00Z</time>
      </trkpt>
      <trkpt lat="43.60247" lon="6.56156">
        <ele>374.4</ele>
        <time>2019-09-17T13:10:03Z</time>
      </trkpt>
      <trkpt lat="43.60246" lon="6.56164">
        <ele>374.5</ele>
        <time>2019-09-17T13:10:07Z</time>
      </trkpt>
      <trkpt lat="43.60245" lon="6.56171">
        <ele>374.5</ele>
        <time>2019-09-17T13:10:17Z</time>
      </trkpt>
      <trkpt lat="43.60244" lon="6.56177">
        <ele>375.1</ele>
        <time>2019-09-17T13:10:24Z</time>
      </trkpt>
      <trkpt lat="43.60243" lon="6.56184">
        <ele>375.6</ele>
        <time>2019-09-17T13:10:30Z</time>
      </trkpt>
      <trkpt lat="43.60243" lon="6.56191">
        <ele>374.1</ele>
        <time>2019-09-17T13:10:37Z</time>
      </trkpt>
      <trkpt lat="43.60243" lon="6.56197">
        <ele>371.6</ele>
        <time>2019-09-17T13:10:46Z</time>
      </trkpt>
      <trkpt lat="43.60247" lon="6.56198">
        <ele>372.7</ele>
        <time>2019-09-17T13:10:55Z</time>
      </trkpt>
      <trkpt lat="43.60252" lon="6.56195">
        <ele>367.6</ele>
        <time>2019-09-17T13:11:13Z</time>
      </trkpt>
      <trkpt lat="43.60255" lon="6.5619">
        <ele>365.4</ele>
        <time>2019-09-17T13:11:19Z</time>
      </trkpt>
      <trkpt lat="43.60258" lon="6.56184">
        <ele>364.4</ele>
        <time>2019-09-17T13:11:26Z</time>
      </trkpt>
      <trkpt lat="43.60257" lon="6.56177">
        <ele>360.8</ele>
        <time>2019-09-17T13:11:37Z</time>
      </trkpt>
      <trkpt lat="43.60256" lon="6.56171">
        <ele>357.2</ele>
        <time>2019-09-17T13:11:43Z</time>
      </trkpt>
      <trkpt lat="43.6026" lon="6.56166">
        <ele>357.6</ele>
        <time>2019-09-17T13:11:50Z</time>
      </trkpt>
      <trkpt lat="43.60263" lon="6.56161">
        <ele>357.6</ele>
        <time>2019-09-17T13:12:00Z</time>
      </trkpt>
      <trkpt lat="43.60267" lon="6.56157">
        <ele>357.4</ele>
        <time>2019-09-17T13:12:06Z</time>
      </trkpt>
      <trkpt lat="43.60271" lon="6.56153">
        <ele>353.3</ele>
        <time>2019-09-17T13:12:15Z</time>
      </trkpt>
      <trkpt lat="43.60274" lon="6.56148">
        <ele>351.8</ele>
        <time>2019-09-17T13:12:21Z</time>
      </trkpt>
      <trkpt lat="43.60276" lon="6.56142">
        <ele>351.4</ele>
        <time>2019-09-17T13:12:31Z</time>
      </trkpt>
      <trkpt lat="43.60277" lon="6.56136">
        <ele>350.6</ele>
        <time>2019-09-17T13:12:38Z</time>
      </trkpt>
      <trkpt lat="43.6028" lon="6.56131">
        <ele>349.6</ele>
        <time>2019-09-17T13:12:42Z</time>
      </trkpt>
      <trkpt lat="43.60284" lon="6.56126">
        <ele>350.3</ele>
        <time>2019-09-17T13:12:54Z</time>
      </trkpt>
      <trkpt lat="43.60287" lon="6.56118">
        <ele>350.7</ele>
        <time>2019-09-17T13:13:23Z</time>
      </trkpt>
      <trkpt lat="43.6029" lon="6.56113">
        <ele>350.7</ele>
        <time>2019-09-17T13:13:29Z</time>
      </trkpt>
      <trkpt lat="43.60293" lon="6.56107">
        <ele>350.6</ele>
        <time>2019-09-17T13:13:33Z</time>
      </trkpt>
      <trkpt lat="43.60295" lon="6.56099">
        <ele>350.1</ele>
        <time>2019-09-17T13:13:36Z</time>
      </trkpt>
      <trkpt lat="43.60297" lon="6.56093">
        <ele>350.3</ele>
        <time>2019-09-17T13:13:38Z</time>
      </trkpt>
      <trkpt lat="43.60298" lon="6.56086">
        <ele>349.6</ele>
        <time>2019-09-17T13:13:41Z</time>
      </trkpt>
      <trkpt lat="43.603" lon="6.5608">
        <ele>348.6</ele>
        <time>2019-09-17T13:13:47Z</time>
      </trkpt>
      <trkpt lat="43.60301" lon="6.56073">
        <ele>347.6</ele>
        <time>2019-09-17T13:13:58Z</time>
      </trkpt>
      <trkpt lat="43.60304" lon="6.56068">
        <ele>348.3</ele>
        <time>2019-09-17T13:14:07Z</time>
      </trkpt>
      <trkpt lat="43.60306" lon="6.56062">
        <ele>348.7</ele>
        <time>2019-09-17T13:14:17Z</time>
      </trkpt>
      <trkpt lat="43.60309" lon="6.56056">
        <ele>348.9</ele>
        <time>2019-09-17T13:14:26Z</time>
      </trkpt>
      <trkpt lat="43.60307" lon="6.56047">
        <ele>346.9</ele>
        <time>2019-09-17T13:14:31Z</time>
      </trkpt>
      <trkpt lat="43.6031" lon="6.56043">
        <ele>345.1</ele>
        <time>2019-09-17T13:14:39Z</time>
      </trkpt>
      <trkpt lat="43.60313" lon="6.56038">
        <ele>343.9</ele>
        <time>2019-09-17T13:14:55Z</time>
      </trkpt>
      <trkpt lat="43.60314" lon="6.56031">
        <ele>342.3</ele>
        <time>2019-09-17T13:15:00Z</time>
      </trkpt>
      <trkpt lat="43.60317" lon="6.56024">
        <ele>340.9</ele>
        <time>2019-09-17T13:15:04Z</time>
      </trkpt>
      <trkpt lat="43.60321" lon="6.56022">
        <ele>341</ele>
        <time>2019-09-17T13:15:09Z</time>
      </trkpt>
      <trkpt lat="43.60324" lon="6.56016">
        <ele>339.4</ele>
        <time>2019-09-17T13:15:18Z</time>
      </trkpt>
      <trkpt lat="43.60327" lon="6.56011">
        <ele>338.2</ele>
        <time>2019-09-17T13:15:23Z</time>
      </trkpt>
      <trkpt lat="43.60331" lon="6.56009">
        <ele>337.1</ele>
        <time>2019-09-17T13:15:36Z</time>
      </trkpt>
      <trkpt lat="43.60333" lon="6.56001">
        <ele>335</ele>
        <time>2019-09-17T13:15:43Z</time>
      </trkpt>
      <trkpt lat="43.60338" lon="6.55995">
        <ele>334.2</ele>
        <time>2019-09-17T13:15:47Z</time>
      </trkpt>
      <trkpt lat="43.60338" lon="6.55989">
        <ele>333.6</ele>
        <time>2019-09-17T13:15:54Z</time>
      </trkpt>
      <trkpt lat="43.60338" lon="6.55982">
        <ele>332</ele>
        <time>2019-09-17T13:16:08Z</time>
      </trkpt>
      <trkpt lat="43.60341" lon="6.55975">
        <ele>330.5</ele>
        <time>2019-09-17T13:16:14Z</time>
      </trkpt>
      <trkpt lat="43.60344" lon="6.5597">
        <ele>329</ele>
        <time>2019-09-17T13:16:22Z</time>
      </trkpt>
      <trkpt lat="43.60345" lon="6.55963">
        <ele>328.3</ele>
        <time>2019-09-17T13:16:26Z</time>
      </trkpt>
      <trkpt lat="43.60344" lon="6.55955">
        <ele>326.6</ele>
        <time>2019-09-17T13:16:39Z</time>
      </trkpt>
      <trkpt lat="43.60344" lon="6.55949">
        <ele>325.6</ele>
        <time>2019-09-17T13:16:42Z</time>
      </trkpt>
      <trkpt lat="43.60344" lon="6.55941">
        <ele>323.3</ele>
        <time>2019-09-17T13:16:48Z</time>
      </trkpt>
      <trkpt lat="43.60345" lon="6.55935">
        <ele>322</ele>
        <time>2019-09-17T13:16:57Z</time>
      </trkpt>
      <trkpt lat="43.60346" lon="6.55929">
        <ele>320.8</ele>
        <time>2019-09-17T13:17:10Z</time>
      </trkpt>
      <trkpt lat="43.60347" lon="6.55923">
        <ele>321</ele>
        <time>2019-09-17T13:17:18Z</time>
      </trkpt>
      <trkpt lat="43.60346" lon="6.55917">
        <ele>321.8</ele>
        <time>2019-09-17T13:17:27Z</time>
      </trkpt>
      <trkpt lat="43.60343" lon="6.55912">
        <ele>320</ele>
        <time>2019-09-17T13:17:36Z</time>
      </trkpt>
      <trkpt lat="43.60341" lon="6.55905">
        <ele>319.5</ele>
        <time>2019-09-17T13:17:42Z</time>
      </trkpt>
      <trkpt lat="43.60339" lon="6.55899">
        <ele>319.6</ele>
        <time>2019-09-17T13:17:52Z</time>
      </trkpt>
      <trkpt lat="43.60337" lon="6.55892">
        <ele>318.2</ele>
        <time>2019-09-17T13:17:59Z</time>
      </trkpt>
      <trkpt lat="43.60333" lon="6.55889">
        <ele>317.4</ele>
        <time>2019-09-17T13:18:05Z</time>
      </trkpt>
      <trkpt lat="43.60331" lon="6.55883">
        <ele>318.3</ele>
        <time>2019-09-17T13:18:11Z</time>
      </trkpt>
      <trkpt lat="43.60329" lon="6.55875">
        <ele>317.9</ele>
        <time>2019-09-17T13:18:30Z</time>
      </trkpt>
      <trkpt lat="43.60326" lon="6.55871">
        <ele>316.5</ele>
        <time>2019-09-17T13:18:35Z</time>
      </trkpt>
      <trkpt lat="43.60321" lon="6.55866">
        <ele>314</ele>
        <time>2019-09-17T13:18:41Z</time>
      </trkpt>
      <trkpt lat="43.60317" lon="6.55862">
        <ele>307.7</ele>
        <time>2019-09-17T13:18:59Z</time>
      </trkpt>
      <trkpt lat="43.60316" lon="6.55855">
        <ele>304.8</ele>
        <time>2019-09-17T13:19:13Z</time>
      </trkpt>
      <trkpt lat="43.60313" lon="6.55849">
        <ele>303.8</ele>
        <time>2019-09-17T13:19:17Z</time>
      </trkpt>
      <trkpt lat="43.6031" lon="6.55844">
        <ele>304</ele>
        <time>2019-09-17T13:19:23Z</time>
      </trkpt>
      <trkpt lat="43.60309" lon="6.55838">
        <ele>304.6</ele>
        <time>2019-09-17T13:19:29Z</time>
      </trkpt>
      <trkpt lat="43.60306" lon="6.55832">
        <ele>306.5</ele>
        <time>2019-09-17T13:19:40Z</time>
      </trkpt>
      <trkpt lat="43.60302" lon="6.55829">
        <ele>306.7</ele>
        <time>2019-09-17T13:19:50Z</time>
      </trkpt>
      <trkpt lat="43.603" lon="6.55823">
        <ele>306.4</ele>
        <time>2019-09-17T13:19:54Z</time>
      </trkpt>
      <trkpt lat="43.603" lon="6.55816">
        <ele>306.4</ele>
        <time>2019-09-17T13:19:59Z</time>
      </trkpt>
      <trkpt lat="43.60296" lon="6.55809">
        <ele>305</ele>
        <time>2019-09-17T13:20:03Z</time>
      </trkpt>
      <trkpt lat="43.60294" lon="6.55804">
        <ele>304.4</ele>
        <time>2019-09-17T13:20:06Z</time>
      </trkpt>
      <trkpt lat="43.60291" lon="6.55798">
        <ele>304.2</ele>
        <time>2019-09-17T13:20:11Z</time>
      </trkpt>
      <trkpt lat="43.6029" lon="6.5579">
        <ele>305.2</ele>
        <time>2019-09-17T13:20:20Z</time>
      </trkpt>
      <trkpt lat="43.60288" lon="6.55784">
        <ele>305.6</ele>
        <time>2019-09-17T13:20:25Z</time>
      </trkpt>
      <trkpt lat="43.60287" lon="6.55777">
        <ele>305.9</ele>
        <time>2019-09-17T13:20:30Z</time>
      </trkpt>
      <trkpt lat="43.60287" lon="6.5577">
        <ele>305.1</ele>
        <time>2019-09-17T13:20:35Z</time>
      </trkpt>
      <trkpt lat="43.60289" lon="6.55764">
        <ele>304.7</ele>
        <time>2019-09-17T13:20:40Z</time>
      </trkpt>
      <trkpt lat="43.60289" lon="6.55758">
        <ele>306</ele>
        <time>2019-09-17T13:20:46Z</time>
      </trkpt>
      <trkpt lat="43.6029" lon="6.5575">
        <ele>307.6</ele>
        <time>2019-09-17T13:20:58Z</time>
      </trkpt>
      <trkpt lat="43.60291" lon="6.55744">
        <ele>308.2</ele>
        <time>2019-09-17T13:21:02Z</time>
      </trkpt>
      <trkpt lat="43.60289" lon="6.55738">
        <ele>308.2</ele>
        <time>2019-09-17T13:21:10Z</time>
      </trkpt>
      <trkpt lat="43.60289" lon="6.55731">
        <ele>306.7</ele>
        <time>2019-09-17T13:21:23Z</time>
      </trkpt>
      <trkpt lat="43.60294" lon="6.55732">
        <ele>303.7</ele>
        <time>2019-09-17T13:21:35Z</time>
      </trkpt>
      <trkpt lat="43.60299" lon="6.55731">
        <ele>300.5</ele>
        <time>2019-09-17T13:21:40Z</time>
      </trkpt>
      <trkpt lat="43.60304" lon="6.55728">
        <ele>306.9</ele>
        <time>2019-09-17T13:21:47Z</time>
      </trkpt>
      <trkpt lat="43.60305" lon="6.55722">
        <ele>308.5</ele>
        <time>2019-09-17T13:21:50Z</time>
      </trkpt>
      <trkpt lat="43.60306" lon="6.55715">
        <ele>308.4</ele>
        <time>2019-09-17T13:21:59Z</time>
      </trkpt>
      <trkpt lat="43.60307" lon="6.55709">
        <ele>308.6</ele>
        <time>2019-09-17T13:22:03Z</time>
      </trkpt>
      <trkpt lat="43.60307" lon="6.55702">
        <ele>307.5</ele>
        <time>2019-09-17T13:22:07Z</time>
      </trkpt>
      <trkpt lat="43.60306" lon="6.55695">
        <ele>306.5</ele>
        <time>2019-09-17T13:22:11Z</time>
      </trkpt>
      <trkpt lat="43.60303" lon="6.55689">
        <ele>304.2</ele>
        <time>2019-09-17T13:22:15Z</time>
      </trkpt>
      <trkpt lat="43.60301" lon="6.55683">
        <ele>302.3</ele>
        <time>2019-09-17T13:22:20Z</time>
      </trkpt>
      <trkpt lat="43.60299" lon="6.55676">
        <ele>301</ele>
        <time>2019-09-17T13:22:26Z</time>
      </trkpt>
      <trkpt lat="43.60297" lon="6.5567">
        <ele>300.5</ele>
        <time>2019-09-17T13:22:32Z</time>
      </trkpt>
      <trkpt lat="43.60295" lon="6.55663">
        <ele>300.5</ele>
        <time>2019-09-17T13:22:37Z</time>
      </trkpt>
      <trkpt lat="43.60292" lon="6.55657">
        <ele>299.2</ele>
        <time>2019-09-17T13:22:44Z</time>
      </trkpt>
      <trkpt lat="43.60289" lon="6.55652">
        <ele>298.5</ele>
        <time>2019-09-17T13:22:48Z</time>
      </trkpt>
      <trkpt lat="43.60289" lon="6.55645">
        <ele>297.7</ele>
        <time>2019-09-17T13:22:53Z</time>
      </trkpt>
      <trkpt lat="43.60286" lon="6.5564">
        <ele>297.4</ele>
        <time>2019-09-17T13:22:58Z</time>
      </trkpt>
      <trkpt lat="43.60283" lon="6.55635">
        <ele>296.3</ele>
        <time>2019-09-17T13:23:04Z</time>
      </trkpt>
      <trkpt lat="43.60279" lon="6.55631">
        <ele>296.6</ele>
        <time>2019-09-17T13:23:10Z</time>
      </trkpt>
      <trkpt lat="43.6028" lon="6.55625">
        <ele>297.5</ele>
        <time>2019-09-17T13:23:28Z</time>
      </trkpt>
      <trkpt lat="43.60277" lon="6.5562">
        <ele>298.2</ele>
        <time>2019-09-17T13:23:40Z</time>
      </trkpt>
      <trkpt lat="43.60274" lon="6.55615">
        <ele>302.2</ele>
        <time>2019-09-17T13:23:55Z</time>
      </trkpt>
      <trkpt lat="43.60272" lon="6.5561">
        <ele>301.9</ele>
        <time>2019-09-17T13:23:59Z</time>
      </trkpt>
      <trkpt lat="43.60273" lon="6.55603">
        <ele>301.4</ele>
        <time>2019-09-17T13:24:04Z</time>
      </trkpt>
      <trkpt lat="43.60277" lon="6.55601">
        <ele>301.1</ele>
        <time>2019-09-17T13:24:06Z</time>
      </trkpt>
      <trkpt lat="43.6028" lon="6.55596">
        <ele>301</ele>
        <time>2019-09-17T13:24:11Z</time>
      </trkpt>
      <trkpt lat="43.60283" lon="6.55601">
        <ele>303.2</ele>
        <time>2019-09-17T13:24:42Z</time>
      </trkpt>
      <trkpt lat="43.60284" lon="6.55608">
        <ele>303.9</ele>
        <time>2019-09-17T13:24:46Z</time>
      </trkpt>
      <trkpt lat="43.60285" lon="6.55615">
        <ele>304.4</ele>
        <time>2019-09-17T13:24:51Z</time>
      </trkpt>
      <trkpt lat="43.60286" lon="6.55621">
        <ele>304.3</ele>
        <time>2019-09-17T13:24:54Z</time>
      </trkpt>
      <trkpt lat="43.60289" lon="6.55627">
        <ele>305.1</ele>
        <time>2019-09-17T13:24:58Z</time>
      </trkpt>
      <trkpt lat="43.60291" lon="6.55632">
        <ele>306</ele>
        <time>2019-09-17T13:25:03Z</time>
      </trkpt>
      <trkpt lat="43.60294" lon="6.55637">
        <ele>306.9</ele>
        <time>2019-09-17T13:25:07Z</time>
      </trkpt>
      <trkpt lat="43.60298" lon="6.55642">
        <ele>307.7</ele>
        <time>2019-09-17T13:25:15Z</time>
      </trkpt>
      <trkpt lat="43.60303" lon="6.55647">
        <ele>307.7</ele>
        <time>2019-09-17T13:25:18Z</time>
      </trkpt>
      <trkpt lat="43.60307" lon="6.55652">
        <ele>307.6</ele>
        <time>2019-09-17T13:25:21Z</time>
      </trkpt>
      <trkpt lat="43.60311" lon="6.55656">
        <ele>307.6</ele>
        <time>2019-09-17T13:25:26Z</time>
      </trkpt>
      <trkpt lat="43.60315" lon="6.55659">
        <ele>307.5</ele>
        <time>2019-09-17T13:25:40Z</time>
      </trkpt>
      <trkpt lat="43.6032" lon="6.5566">
        <ele>307.9</ele>
        <time>2019-09-17T13:25:44Z</time>
      </trkpt>
      <trkpt lat="43.60325" lon="6.55661">
        <ele>308</ele>
        <time>2019-09-17T13:25:49Z</time>
      </trkpt>
      <trkpt lat="43.6033" lon="6.55665">
        <ele>306.4</ele>
        <time>2019-09-17T13:25:54Z</time>
      </trkpt>
      <trkpt lat="43.60335" lon="6.55668">
        <ele>306.1</ele>
        <time>2019-09-17T13:25:59Z</time>
      </trkpt>
      <trkpt lat="43.6034" lon="6.55669">
        <ele>304.2</ele>
        <time>2019-09-17T13:26:04Z</time>
      </trkpt>
      <trkpt lat="43.60344" lon="6.55673">
        <ele>305.2</ele>
        <time>2019-09-17T13:26:09Z</time>
      </trkpt>
      <trkpt lat="43.60348" lon="6.55675">
        <ele>305.1</ele>
        <time>2019-09-17T13:26:18Z</time>
      </trkpt>
      <trkpt lat="43.60353" lon="6.55677">
        <ele>305.7</ele>
        <time>2019-09-17T13:26:22Z</time>
      </trkpt>
      <trkpt lat="43.60357" lon="6.5568">
        <ele>306.9</ele>
        <time>2019-09-17T13:26:26Z</time>
      </trkpt>
      <trkpt lat="43.60363" lon="6.55686">
        <ele>306.8</ele>
        <time>2019-09-17T13:26:30Z</time>
      </trkpt>
      <trkpt lat="43.60366" lon="6.55693">
        <ele>307.5</ele>
        <time>2019-09-17T13:26:33Z</time>
      </trkpt>
      <trkpt lat="43.60372" lon="6.55694">
        <ele>307.3</ele>
        <time>2019-09-17T13:26:40Z</time>
      </trkpt>
      <trkpt lat="43.60377" lon="6.55694">
        <ele>308.4</ele>
        <time>2019-09-17T13:26:48Z</time>
      </trkpt>
      <trkpt lat="43.60381" lon="6.55694">
        <ele>309.3</ele>
        <time>2019-09-17T13:26:53Z</time>
      </trkpt>
      <trkpt lat="43.60386" lon="6.55695">
        <ele>310.6</ele>
        <time>2019-09-17T13:26:58Z</time>
      </trkpt>
      <trkpt lat="43.60393" lon="6.55691">
        <ele>311.5</ele>
        <time>2019-09-17T13:27:06Z</time>
      </trkpt>
      <trkpt lat="43.60399" lon="6.55689">
        <ele>312</ele>
        <time>2019-09-17T13:27:09Z</time>
      </trkpt>
      <trkpt lat="43.60403" lon="6.55681">
        <ele>311.3</ele>
        <time>2019-09-17T13:27:11Z</time>
      </trkpt>
      <trkpt lat="43.60407" lon="6.55678">
        <ele>310.9</ele>
        <time>2019-09-17T13:27:17Z</time>
      </trkpt>
      <trkpt lat="43.60412" lon="6.55679">
        <ele>311.6</ele>
        <time>2019-09-17T13:27:23Z</time>
      </trkpt>
      <trkpt lat="43.60416" lon="6.55678">
        <ele>312.6</ele>
        <time>2019-09-17T13:27:30Z</time>
      </trkpt>
      <trkpt lat="43.60423" lon="6.55677">
        <ele>312.1</ele>
        <time>2019-09-17T13:27:35Z</time>
      </trkpt>
      <trkpt lat="43.60428" lon="6.55677">
        <ele>311.6</ele>
        <time>2019-09-17T13:27:39Z</time>
      </trkpt>
      <trkpt lat="43.60432" lon="6.55676">
        <ele>310.3</ele>
        <time>2019-09-17T13:27:46Z</time>
      </trkpt>
      <trkpt lat="43.60437" lon="6.55674">
        <ele>312</ele>
        <time>2019-09-17T13:27:55Z</time>
      </trkpt>
      <trkpt lat="43.60442" lon="6.55674">
        <ele>313.6</ele>
        <time>2019-09-17T13:28:00Z</time>
      </trkpt>
      <trkpt lat="43.60446" lon="6.55675">
        <ele>315.7</ele>
        <time>2019-09-17T13:28:12Z</time>
      </trkpt>
      <trkpt lat="43.60451" lon="6.55675">
        <ele>316.9</ele>
        <time>2019-09-17T13:28:16Z</time>
      </trkpt>
      <trkpt lat="43.60456" lon="6.55674">
        <ele>318.1</ele>
        <time>2019-09-17T13:28:20Z</time>
      </trkpt>
      <trkpt lat="43.60461" lon="6.55673">
        <ele>319.7</ele>
        <time>2019-09-17T13:28:24Z</time>
      </trkpt>
      <trkpt lat="43.60466" lon="6.55672">
        <ele>321.1</ele>
        <time>2019-09-17T13:28:29Z</time>
      </trkpt>
      <trkpt lat="43.60472" lon="6.55673">
        <ele>319.9</ele>
        <time>2019-09-17T13:28:40Z</time>
      </trkpt>
      <trkpt lat="43.60477" lon="6.55673">
        <ele>319.3</ele>
        <time>2019-09-17T13:28:43Z</time>
      </trkpt>
      <trkpt lat="43.60482" lon="6.55669">
        <ele>319</ele>
        <time>2019-09-17T13:28:47Z</time>
      </trkpt>
      <trkpt lat="43.60485" lon="6.55663">
        <ele>319.2</ele>
        <time>2019-09-17T13:28:51Z</time>
      </trkpt>
      <trkpt lat="43.60489" lon="6.55659">
        <ele>319.9</ele>
        <time>2019-09-17T13:28:55Z</time>
      </trkpt>
      <trkpt lat="43.60491" lon="6.55653">
        <ele>321</ele>
        <time>2019-09-17T13:29:01Z</time>
      </trkpt>
      <trkpt lat="43.60495" lon="6.55648">
        <ele>322.4</ele>
        <time>2019-09-17T13:29:07Z</time>
      </trkpt>
      <trkpt lat="43.60496" lon="6.55642">
        <ele>322.2</ele>
        <time>2019-09-17T13:29:11Z</time>
      </trkpt>
      <trkpt lat="43.60499" lon="6.55636">
        <ele>322.5</ele>
        <time>2019-09-17T13:29:16Z</time>
      </trkpt>
      <trkpt lat="43.60498" lon="6.55629">
        <ele>323.5</ele>
        <time>2019-09-17T13:29:24Z</time>
      </trkpt>
      <trkpt lat="43.60497" lon="6.55622">
        <ele>323.9</ele>
        <time>2019-09-17T13:29:29Z</time>
      </trkpt>
      <trkpt lat="43.60497" lon="6.55616">
        <ele>324.4</ele>
        <time>2019-09-17T13:29:35Z</time>
      </trkpt>
      <trkpt lat="43.60499" lon="6.55609">
        <ele>324.9</ele>
        <time>2019-09-17T13:29:41Z</time>
      </trkpt>
      <trkpt lat="43.60503" lon="6.55604">
        <ele>324.8</ele>
        <time>2019-09-17T13:29:46Z</time>
      </trkpt>
      <trkpt lat="43.60507" lon="6.55607">
        <ele>323.5</ele>
        <time>2019-09-17T13:29:57Z</time>
      </trkpt>
      <trkpt lat="43.60511" lon="6.5561">
        <ele>324</ele>
        <time>2019-09-17T13:30:03Z</time>
      </trkpt>
      <trkpt lat="43.60516" lon="6.55613">
        <ele>325.6</ele>
        <time>2019-09-17T13:30:11Z</time>
      </trkpt>
      <trkpt lat="43.60522" lon="6.55613">
        <ele>326.6</ele>
        <time>2019-09-17T13:30:17Z</time>
      </trkpt>
      <trkpt lat="43.60527" lon="6.55613">
        <ele>326.4</ele>
        <time>2019-09-17T13:30:21Z</time>
      </trkpt>
      <trkpt lat="43.60537" lon="6.55611">
        <ele>327.9</ele>
        <time>2019-09-17T13:30:35Z</time>
      </trkpt>
      <trkpt lat="43.60542" lon="6.55611">
        <ele>331.5</ele>
        <time>2019-09-17T13:30:41Z</time>
      </trkpt>
      <trkpt lat="43.60547" lon="6.55611">
        <ele>335.7</ele>
        <time>2019-09-17T13:30:50Z</time>
      </trkpt>
      <trkpt lat="43.60552" lon="6.55611">
        <ele>338.2</ele>
        <time>2019-09-17T13:30:55Z</time>
      </trkpt>
      <trkpt lat="43.60556" lon="6.55608">
        <ele>338.8</ele>
        <time>2019-09-17T13:30:59Z</time>
      </trkpt>
      <trkpt lat="43.60561" lon="6.55609">
        <ele>336.6</ele>
        <time>2019-09-17T13:31:04Z</time>
      </trkpt>
      <trkpt lat="43.60566" lon="6.55608">
        <ele>331.2</ele>
        <time>2019-09-17T13:31:16Z</time>
      </trkpt>
      <trkpt lat="43.60571" lon="6.55608">
        <ele>331.1</ele>
        <time>2019-09-17T13:31:21Z</time>
      </trkpt>
      <trkpt lat="43.60576" lon="6.55607">
        <ele>334.3</ele>
        <time>2019-09-17T13:31:33Z</time>
      </trkpt>
      <trkpt lat="43.60581" lon="6.55605">
        <ele>335.6</ele>
        <time>2019-09-17T13:31:42Z</time>
      </trkpt>
      <trkpt lat="43.60585" lon="6.55602">
        <ele>332.8</ele>
        <time>2019-09-17T13:32:53Z</time>
      </trkpt>
      <trkpt lat="43.60583" lon="6.55596">
        <ele>332.4</ele>
        <time>2019-09-17T13:32:56Z</time>
      </trkpt>
      <trkpt lat="43.60584" lon="6.55602">
        <ele>331.8</ele>
        <time>2019-09-17T13:33:55Z</time>
      </trkpt>
      <trkpt lat="43.60586" lon="6.55609">
        <ele>332.4</ele>
        <time>2019-09-17T13:34:00Z</time>
      </trkpt>
      <trkpt lat="43.60589" lon="6.55603">
        <ele>329.2</ele>
        <time>2019-09-17T13:35:11Z</time>
      </trkpt>
      <trkpt lat="43.60593" lon="6.55605">
        <ele>328.1</ele>
        <time>2019-09-17T13:35:45Z</time>
      </trkpt>
      <trkpt lat="43.60595" lon="6.55611">
        <ele>323.4</ele>
        <time>2019-09-17T13:35:56Z</time>
      </trkpt>
      <trkpt lat="43.606" lon="6.55613">
        <ele>324.6</ele>
        <time>2019-09-17T13:36:08Z</time>
      </trkpt>
      <trkpt lat="43.60605" lon="6.55616">
        <ele>325.3</ele>
        <time>2019-09-17T13:36:11Z</time>
      </trkpt>
      <trkpt lat="43.6061" lon="6.55619">
        <ele>326.8</ele>
        <time>2019-09-17T13:36:16Z</time>
      </trkpt>
      <trkpt lat="43.60614" lon="6.55621">
        <ele>328</ele>
        <time>2019-09-17T13:36:20Z</time>
      </trkpt>
      <trkpt lat="43.60619" lon="6.55624">
        <ele>329.1</ele>
        <time>2019-09-17T13:36:34Z</time>
      </trkpt>
      <trkpt lat="43.60625" lon="6.55626">
        <ele>329.5</ele>
        <time>2019-09-17T13:36:38Z</time>
      </trkpt>
      <trkpt lat="43.60629" lon="6.55628">
        <ele>330.2</ele>
        <time>2019-09-17T13:36:41Z</time>
      </trkpt>
      <trkpt lat="43.60635" lon="6.55628">
        <ele>331.2</ele>
        <time>2019-09-17T13:36:46Z</time>
      </trkpt>
      <trkpt lat="43.60639" lon="6.55628">
        <ele>332.1</ele>
        <time>2019-09-17T13:36:50Z</time>
      </trkpt>
      <trkpt lat="43.60644" lon="6.55628">
        <ele>332.9</ele>
        <time>2019-09-17T13:36:54Z</time>
      </trkpt>
      <trkpt lat="43.6065" lon="6.55627">
        <ele>334.1</ele>
        <time>2019-09-17T13:37:01Z</time>
      </trkpt>
      <trkpt lat="43.60655" lon="6.55625">
        <ele>334.8</ele>
        <time>2019-09-17T13:37:04Z</time>
      </trkpt>
      <trkpt lat="43.6066" lon="6.55623">
        <ele>336</ele>
        <time>2019-09-17T13:37:09Z</time>
      </trkpt>
      <trkpt lat="43.60665" lon="6.55622">
        <ele>336.9</ele>
        <time>2019-09-17T13:37:15Z</time>
      </trkpt>
      <trkpt lat="43.60669" lon="6.55619">
        <ele>337.2</ele>
        <time>2019-09-17T13:37:20Z</time>
      </trkpt>
      <trkpt lat="43.60673" lon="6.55615">
        <ele>337.5</ele>
        <time>2019-09-17T13:37:25Z</time>
      </trkpt>
      <trkpt lat="43.60676" lon="6.55609">
        <ele>337.9</ele>
        <time>2019-09-17T13:37:30Z</time>
      </trkpt>
      <trkpt lat="43.60679" lon="6.55603">
        <ele>337.2</ele>
        <time>2019-09-17T13:37:35Z</time>
      </trkpt>
      <trkpt lat="43.60683" lon="6.556">
        <ele>333.2</ele>
        <time>2019-09-17T13:38:08Z</time>
      </trkpt>
      <trkpt lat="43.60687" lon="6.55596">
        <ele>333.8</ele>
        <time>2019-09-17T13:38:14Z</time>
      </trkpt>
      <trkpt lat="43.60691" lon="6.55592">
        <ele>335.6</ele>
        <time>2019-09-17T13:38:28Z</time>
      </trkpt>
      <trkpt lat="43.60693" lon="6.55586">
        <ele>334.9</ele>
        <time>2019-09-17T13:38:31Z</time>
      </trkpt>
      <trkpt lat="43.60698" lon="6.55583">
        <ele>335</ele>
        <time>2019-09-17T13:38:34Z</time>
      </trkpt>
      <trkpt lat="43.60702" lon="6.5558">
        <ele>335.5</ele>
        <time>2019-09-17T13:38:43Z</time>
      </trkpt>
      <trkpt lat="43.60706" lon="6.55576">
        <ele>335.8</ele>
        <time>2019-09-17T13:38:46Z</time>
      </trkpt>
      <trkpt lat="43.6071" lon="6.55573">
        <ele>335.9</ele>
        <time>2019-09-17T13:38:49Z</time>
      </trkpt>
      <trkpt lat="43.60715" lon="6.55571">
        <ele>336.3</ele>
        <time>2019-09-17T13:38:52Z</time>
      </trkpt>
      <trkpt lat="43.6072" lon="6.55571">
        <ele>336.7</ele>
        <time>2019-09-17T13:38:59Z</time>
      </trkpt>
      <trkpt lat="43.60725" lon="6.55569">
        <ele>335.7</ele>
        <time>2019-09-17T13:39:04Z</time>
      </trkpt>
      <trkpt lat="43.60729" lon="6.55569">
        <ele>334.9</ele>
        <time>2019-09-17T13:39:08Z</time>
      </trkpt>
      <trkpt lat="43.60734" lon="6.55571">
        <ele>334.8</ele>
        <time>2019-09-17T13:39:13Z</time>
      </trkpt>
      <trkpt lat="43.60738" lon="6.55575">
        <ele>334.8</ele>
        <time>2019-09-17T13:39:22Z</time>
      </trkpt>
      <trkpt lat="43.60743" lon="6.55579">
        <ele>334.9</ele>
        <time>2019-09-17T13:39:31Z</time>
      </trkpt>
      <trkpt lat="43.60747" lon="6.55583">
        <ele>335.1</ele>
        <time>2019-09-17T13:39:39Z</time>
      </trkpt>
      <trkpt lat="43.60752" lon="6.55588">
        <ele>335.2</ele>
        <time>2019-09-17T13:39:42Z</time>
      </trkpt>
      <trkpt lat="43.60756" lon="6.55592">
        <ele>335</ele>
        <time>2019-09-17T13:39:45Z</time>
      </trkpt>
      <trkpt lat="43.6076" lon="6.55596">
        <ele>334.8</ele>
        <time>2019-09-17T13:39:48Z</time>
      </trkpt>
      <trkpt lat="43.60764" lon="6.556">
        <ele>334.5</ele>
        <time>2019-09-17T13:39:52Z</time>
      </trkpt>
      <trkpt lat="43.60769" lon="6.55603">
        <ele>334.2</ele>
        <time>2019-09-17T13:39:57Z</time>
      </trkpt>
      <trkpt lat="43.60773" lon="6.55602">
        <ele>333.5</ele>
        <time>2019-09-17T13:39:59Z</time>
      </trkpt>
      <trkpt lat="43.60778" lon="6.55605">
        <ele>334.2</ele>
        <time>2019-09-17T13:40:02Z</time>
      </trkpt>
      <trkpt lat="43.60782" lon="6.55609">
        <ele>334.3</ele>
        <time>2019-09-17T13:40:06Z</time>
      </trkpt>
      <trkpt lat="43.60786" lon="6.55612">
        <ele>334.5</ele>
        <time>2019-09-17T13:40:12Z</time>
      </trkpt>
      <trkpt lat="43.6079" lon="6.55615">
        <ele>334.3</ele>
        <time>2019-09-17T13:40:18Z</time>
      </trkpt>
      <trkpt lat="43.60796" lon="6.55617">
        <ele>333.7</ele>
        <time>2019-09-17T13:40:23Z</time>
      </trkpt>
      <trkpt lat="43.608" lon="6.55619">
        <ele>333</ele>
        <time>2019-09-17T13:40:27Z</time>
      </trkpt>
      <trkpt lat="43.60804" lon="6.55624">
        <ele>332.3</ele>
        <time>2019-09-17T13:40:35Z</time>
      </trkpt>
      <trkpt lat="43.60809" lon="6.55624">
        <ele>327.8</ele>
        <time>2019-09-17T13:40:40Z</time>
      </trkpt>
      <trkpt lat="43.60814" lon="6.55623">
        <ele>326.9</ele>
        <time>2019-09-17T13:40:53Z</time>
      </trkpt>
      <trkpt lat="43.60819" lon="6.5562">
        <ele>325.1</ele>
        <time>2019-09-17T13:40:56Z</time>
      </trkpt>
      <trkpt lat="43.60824" lon="6.5562">
        <ele>323.3</ele>
        <time>2019-09-17T13:41:00Z</time>
      </trkpt>
      <trkpt lat="43.60828" lon="6.55623">
        <ele>322.2</ele>
        <time>2019-09-17T13:41:07Z</time>
      </trkpt>
      <trkpt lat="43.60832" lon="6.55626">
        <ele>323.1</ele>
        <time>2019-09-17T13:41:13Z</time>
      </trkpt>
      <trkpt lat="43.60838" lon="6.55626">
        <ele>323.7</ele>
        <time>2019-09-17T13:41:24Z</time>
      </trkpt>
      <trkpt lat="43.60842" lon="6.55622">
        <ele>321.5</ele>
        <time>2019-09-17T13:41:26Z</time>
      </trkpt>
      <trkpt lat="43.60847" lon="6.55623">
        <ele>319.9</ele>
        <time>2019-09-17T13:41:29Z</time>
      </trkpt>
      <trkpt lat="43.60852" lon="6.55626">
        <ele>319.2</ele>
        <time>2019-09-17T13:41:33Z</time>
      </trkpt>
      <trkpt lat="43.60857" lon="6.55628">
        <ele>319.4</ele>
        <time>2019-09-17T13:41:40Z</time>
      </trkpt>
      <trkpt lat="43.60862" lon="6.5563">
        <ele>320.1</ele>
        <time>2019-09-17T13:41:44Z</time>
      </trkpt>
      <trkpt lat="43.60867" lon="6.55632">
        <ele>320.9</ele>
        <time>2019-09-17T13:41:49Z</time>
      </trkpt>
      <trkpt lat="43.60872" lon="6.55633">
        <ele>321.5</ele>
        <time>2019-09-17T13:41:56Z</time>
      </trkpt>
      <trkpt lat="43.60877" lon="6.55632">
        <ele>321.9</ele>
        <time>2019-09-17T13:42:00Z</time>
      </trkpt>
      <trkpt lat="43.60881" lon="6.55632">
        <ele>322.6</ele>
        <time>2019-09-17T13:42:04Z</time>
      </trkpt>
      <trkpt lat="43.60886" lon="6.55632">
        <ele>323.2</ele>
        <time>2019-09-17T13:42:08Z</time>
      </trkpt>
      <trkpt lat="43.60891" lon="6.55631">
        <ele>323.9</ele>
        <time>2019-09-17T13:42:14Z</time>
      </trkpt>
      <trkpt lat="43.60896" lon="6.55629">
        <ele>324.5</ele>
        <time>2019-09-17T13:42:20Z</time>
      </trkpt>
      <trkpt lat="43.60901" lon="6.55629">
        <ele>325</ele>
        <time>2019-09-17T13:42:25Z</time>
      </trkpt>
      <trkpt lat="43.60906" lon="6.55629">
        <ele>325.4</ele>
        <time>2019-09-17T13:42:31Z</time>
      </trkpt>
      <trkpt lat="43.60912" lon="6.55631">
        <ele>325.9</ele>
        <time>2019-09-17T13:42:44Z</time>
      </trkpt>
      <trkpt lat="43.60916" lon="6.55634">
        <ele>326.1</ele>
        <time>2019-09-17T13:42:47Z</time>
      </trkpt>
      <trkpt lat="43.60921" lon="6.55637">
        <ele>326.4</ele>
        <time>2019-09-17T13:42:51Z</time>
      </trkpt>
      <trkpt lat="43.60927" lon="6.5564">
        <ele>327</ele>
        <time>2019-09-17T13:42:56Z</time>
      </trkpt>
      <trkpt lat="43.60932" lon="6.55642">
        <ele>326.9</ele>
        <time>2019-09-17T13:43:00Z</time>
      </trkpt>
      <trkpt lat="43.60936" lon="6.55645">
        <ele>327.8</ele>
        <time>2019-09-17T13:43:05Z</time>
      </trkpt>
      <trkpt lat="43.60941" lon="6.55646">
        <ele>328.8</ele>
        <time>2019-09-17T13:43:10Z</time>
      </trkpt>
      <trkpt lat="43.60946" lon="6.55647">
        <ele>329.1</ele>
        <time>2019-09-17T13:43:16Z</time>
      </trkpt>
      <trkpt lat="43.60951" lon="6.5565">
        <ele>329.8</ele>
        <time>2019-09-17T13:43:22Z</time>
      </trkpt>
      <trkpt lat="43.60955" lon="6.55653">
        <ele>330</ele>
        <time>2019-09-17T13:43:27Z</time>
      </trkpt>
      <trkpt lat="43.6096" lon="6.55656">
        <ele>331.1</ele>
        <time>2019-09-17T13:43:33Z</time>
      </trkpt>
      <trkpt lat="43.60965" lon="6.55658">
        <ele>331.6</ele>
        <time>2019-09-17T13:43:38Z</time>
      </trkpt>
      <trkpt lat="43.6097" lon="6.5566">
        <ele>331</ele>
        <time>2019-09-17T13:43:43Z</time>
      </trkpt>
      <trkpt lat="43.60975" lon="6.55661">
        <ele>331</ele>
        <time>2019-09-17T13:43:48Z</time>
      </trkpt>
      <trkpt lat="43.6098" lon="6.55662">
        <ele>331.1</ele>
        <time>2019-09-17T13:43:53Z</time>
      </trkpt>
      <trkpt lat="43.60985" lon="6.55663">
        <ele>331.1</ele>
        <time>2019-09-17T13:43:58Z</time>
      </trkpt>
      <trkpt lat="43.6099" lon="6.55667">
        <ele>330.8</ele>
        <time>2019-09-17T13:44:05Z</time>
      </trkpt>
      <trkpt lat="43.60995" lon="6.55668">
        <ele>331.4</ele>
        <time>2019-09-17T13:44:09Z</time>
      </trkpt>
      <trkpt lat="43.61" lon="6.55668">
        <ele>332.6</ele>
        <time>2019-09-17T13:44:14Z</time>
      </trkpt>
      <trkpt lat="43.61005" lon="6.55669">
        <ele>332.4</ele>
        <time>2019-09-17T13:44:19Z</time>
      </trkpt>
      <trkpt lat="43.6101" lon="6.55671">
        <ele>331.8</ele>
        <time>2019-09-17T13:44:25Z</time>
      </trkpt>
      <trkpt lat="43.61016" lon="6.55672">
        <ele>331.6</ele>
        <time>2019-09-17T13:44:30Z</time>
      </trkpt>
      <trkpt lat="43.61021" lon="6.55672">
        <ele>331.2</ele>
        <time>2019-09-17T13:44:34Z</time>
      </trkpt>
      <trkpt lat="43.61026" lon="6.55672">
        <ele>331.1</ele>
        <time>2019-09-17T13:44:39Z</time>
      </trkpt>
      <trkpt lat="43.61031" lon="6.55673">
        <ele>331.4</ele>
        <time>2019-09-17T13:44:43Z</time>
      </trkpt>
      <trkpt lat="43.61036" lon="6.55674">
        <ele>331.6</ele>
        <time>2019-09-17T13:44:48Z</time>
      </trkpt>
      <trkpt lat="43.61042" lon="6.55672">
        <ele>329.7</ele>
        <time>2019-09-17T13:44:51Z</time>
      </trkpt>
      <trkpt lat="43.61048" lon="6.55672">
        <ele>328.8</ele>
        <time>2019-09-17T13:44:54Z</time>
      </trkpt>
      <trkpt lat="43.61052" lon="6.55674">
        <ele>327.9</ele>
        <time>2019-09-17T13:45:00Z</time>
      </trkpt>
      <trkpt lat="43.61058" lon="6.55674">
        <ele>328.3</ele>
        <time>2019-09-17T13:45:06Z</time>
      </trkpt>
      <trkpt lat="43.61062" lon="6.55675">
        <ele>328.6</ele>
        <time>2019-09-17T13:45:11Z</time>
      </trkpt>
      <trkpt lat="43.61067" lon="6.55675">
        <ele>328.6</ele>
        <time>2019-09-17T13:45:15Z</time>
      </trkpt>
      <trkpt lat="43.61071" lon="6.55672">
        <ele>328.9</ele>
        <time>2019-09-17T13:45:19Z</time>
      </trkpt>
      <trkpt lat="43.61077" lon="6.55669">
        <ele>328.4</ele>
        <time>2019-09-17T13:45:25Z</time>
      </trkpt>
      <trkpt lat="43.61083" lon="6.55667">
        <ele>326.2</ele>
        <time>2019-09-17T13:45:27Z</time>
      </trkpt>
      <trkpt lat="43.61087" lon="6.55665">
        <ele>324.6</ele>
        <time>2019-09-17T13:45:31Z</time>
      </trkpt>
      <trkpt lat="43.61092" lon="6.55664">
        <ele>324.4</ele>
        <time>2019-09-17T13:45:39Z</time>
      </trkpt>
      <trkpt lat="43.61098" lon="6.55662">
        <ele>325.1</ele>
        <time>2019-09-17T13:45:44Z</time>
      </trkpt>
      <trkpt lat="43.61102" lon="6.55661">
        <ele>325.7</ele>
        <time>2019-09-17T13:45:50Z</time>
      </trkpt>
      <trkpt lat="43.61107" lon="6.55663">
        <ele>326</ele>
        <time>2019-09-17T13:45:57Z</time>
      </trkpt>
      <trkpt lat="43.61113" lon="6.55662">
        <ele>326.2</ele>
        <time>2019-09-17T13:46:01Z</time>
      </trkpt>
      <trkpt lat="43.61118" lon="6.55661">
        <ele>326</ele>
        <time>2019-09-17T13:46:05Z</time>
      </trkpt>
      <trkpt lat="43.61122" lon="6.55661">
        <ele>325.9</ele>
        <time>2019-09-17T13:46:09Z</time>
      </trkpt>
      <trkpt lat="43.61127" lon="6.55661">
        <ele>325.7</ele>
        <time>2019-09-17T13:46:13Z</time>
      </trkpt>
      <trkpt lat="43.61133" lon="6.55659">
        <ele>325.9</ele>
        <time>2019-09-17T13:46:17Z</time>
      </trkpt>
      <trkpt lat="43.61138" lon="6.55656">
        <ele>326.2</ele>
        <time>2019-09-17T13:46:21Z</time>
      </trkpt>
      <trkpt lat="43.61142" lon="6.55655">
        <ele>326.4</ele>
        <time>2019-09-17T13:46:25Z</time>
      </trkpt>
      <trkpt lat="43.61147" lon="6.55651">
        <ele>325.6</ele>
        <time>2019-09-17T13:46:28Z</time>
      </trkpt>
      <trkpt lat="43.61151" lon="6.5565">
        <ele>325.7</ele>
        <time>2019-09-17T13:46:33Z</time>
      </trkpt>
      <trkpt lat="43.61156" lon="6.55652">
        <ele>324.8</ele>
        <time>2019-09-17T13:46:39Z</time>
      </trkpt>
      <trkpt lat="43.61161" lon="6.55652">
        <ele>325</ele>
        <time>2019-09-17T13:46:45Z</time>
      </trkpt>
      <trkpt lat="43.61166" lon="6.5565">
        <ele>326</ele>
        <time>2019-09-17T13:46:50Z</time>
      </trkpt>
      <trkpt lat="43.61171" lon="6.55649">
        <ele>326.8</ele>
        <time>2019-09-17T13:46:56Z</time>
      </trkpt>
      <trkpt lat="43.61175" lon="6.55647">
        <ele>327.4</ele>
        <time>2019-09-17T13:47:00Z</time>
      </trkpt>
      <trkpt lat="43.6118" lon="6.55647">
        <ele>327.6</ele>
        <time>2019-09-17T13:47:04Z</time>
      </trkpt>
      <trkpt lat="43.61186" lon="6.55648">
        <ele>327.7</ele>
        <time>2019-09-17T13:47:09Z</time>
      </trkpt>
      <trkpt lat="43.61191" lon="6.55647">
        <ele>327.8</ele>
        <time>2019-09-17T13:47:15Z</time>
      </trkpt>
      <trkpt lat="43.61196" lon="6.55646">
        <ele>327.8</ele>
        <time>2019-09-17T13:47:20Z</time>
      </trkpt>
      <trkpt lat="43.61201" lon="6.55646">
        <ele>326.8</ele>
        <time>2019-09-17T13:47:34Z</time>
      </trkpt>
      <trkpt lat="43.61206" lon="6.55645">
        <ele>326.5</ele>
        <time>2019-09-17T13:47:36Z</time>
      </trkpt>
      <trkpt lat="43.61211" lon="6.55641">
        <ele>325.8</ele>
        <time>2019-09-17T13:47:39Z</time>
      </trkpt>
      <trkpt lat="43.61213" lon="6.55636">
        <ele>325.2</ele>
        <time>2019-09-17T13:47:42Z</time>
      </trkpt>
      <trkpt lat="43.61217" lon="6.55631">
        <ele>324.6</ele>
        <time>2019-09-17T13:47:45Z</time>
      </trkpt>
      <trkpt lat="43.61221" lon="6.55628">
        <ele>324.2</ele>
        <time>2019-09-17T13:47:49Z</time>
      </trkpt>
      <trkpt lat="43.61226" lon="6.55626">
        <ele>324.2</ele>
        <time>2019-09-17T13:47:54Z</time>
      </trkpt>
      <trkpt lat="43.61228" lon="6.55632">
        <ele>324.6</ele>
        <time>2019-09-17T13:48:20Z</time>
      </trkpt>
      <trkpt lat="43.61227" lon="6.55626">
        <ele>322.4</ele>
        <time>2019-09-17T13:48:38Z</time>
      </trkpt>
      <trkpt lat="43.61228" lon="6.55619">
        <ele>321</ele>
        <time>2019-09-17T13:48:48Z</time>
      </trkpt>
      <trkpt lat="43.61232" lon="6.55621">
        <ele>319.3</ele>
        <time>2019-09-17T13:50:08Z</time>
      </trkpt>
      <trkpt lat="43.61228" lon="6.55618">
        <ele>320.7</ele>
        <time>2019-09-17T13:50:26Z</time>
      </trkpt>
      <trkpt lat="43.61232" lon="6.55622">
        <ele>318.5</ele>
        <time>2019-09-17T13:51:49Z</time>
      </trkpt>
      <trkpt lat="43.61235" lon="6.55626">
        <ele>318.5</ele>
        <time>2019-09-17T13:51:52Z</time>
      </trkpt>
      <trkpt lat="43.61232" lon="6.55621">
        <ele>311.2</ele>
        <time>2019-09-17T13:54:14Z</time>
      </trkpt>
      <trkpt lat="43.61231" lon="6.55615">
        <ele>310.2</ele>
        <time>2019-09-17T13:54:49Z</time>
      </trkpt>
      <trkpt lat="43.61227" lon="6.55622">
        <ele>310</ele>
        <time>2019-09-17T13:54:53Z</time>
      </trkpt>
      <trkpt lat="43.61232" lon="6.55621">
        <ele>311.1</ele>
        <time>2019-09-17T13:55:02Z</time>
      </trkpt>
      <trkpt lat="43.61237" lon="6.55621">
        <ele>311.8</ele>
        <time>2019-09-17T13:55:54Z</time>
      </trkpt>
      <trkpt lat="43.61235" lon="6.55628">
        <ele>311.7</ele>
        <time>2019-09-17T13:55:57Z</time>
      </trkpt>
      <trkpt lat="43.6123" lon="6.55626">
        <ele>311</ele>
        <time>2019-09-17T13:56:01Z</time>
      </trkpt>
      <trkpt lat="43.61233" lon="6.55621">
        <ele>313.3</ele>
        <time>2019-09-17T13:56:33Z</time>
      </trkpt>
      <trkpt lat="43.61237" lon="6.55618">
        <ele>316.4</ele>
        <time>2019-09-17T13:56:50Z</time>
      </trkpt>
      <trkpt lat="43.61241" lon="6.55614">
        <ele>316.6</ele>
        <time>2019-09-17T13:56:54Z</time>
      </trkpt>
      <trkpt lat="43.61246" lon="6.5561">
        <ele>315.6</ele>
        <time>2019-09-17T13:56:56Z</time>
      </trkpt>
      <trkpt lat="43.6125" lon="6.55606">
        <ele>314.6</ele>
        <time>2019-09-17T13:57:00Z</time>
      </trkpt>
      <trkpt lat="43.61255" lon="6.55601">
        <ele>314</ele>
        <time>2019-09-17T13:57:05Z</time>
      </trkpt>
      <trkpt lat="43.6126" lon="6.55599">
        <ele>314.7</ele>
        <time>2019-09-17T13:57:09Z</time>
      </trkpt>
      <trkpt lat="43.61264" lon="6.55595">
        <ele>316.2</ele>
        <time>2019-09-17T13:57:28Z</time>
      </trkpt>
      <trkpt lat="43.61268" lon="6.55596">
        <ele>316.3</ele>
        <time>2019-09-17T13:57:37Z</time>
      </trkpt>
      <trkpt lat="43.61272" lon="6.55592">
        <ele>315</ele>
        <time>2019-09-17T13:57:50Z</time>
      </trkpt>
      <trkpt lat="43.61277" lon="6.55591">
        <ele>316.5</ele>
        <time>2019-09-17T13:57:55Z</time>
      </trkpt>
      <trkpt lat="43.61282" lon="6.55589">
        <ele>319.4</ele>
        <time>2019-09-17T13:58:05Z</time>
      </trkpt>
      <trkpt lat="43.61287" lon="6.55587">
        <ele>320.3</ele>
        <time>2019-09-17T13:58:10Z</time>
      </trkpt>
      <trkpt lat="43.61292" lon="6.55586">
        <ele>320.3</ele>
        <time>2019-09-17T13:58:13Z</time>
      </trkpt>
      <trkpt lat="43.61296" lon="6.55587">
        <ele>320.7</ele>
        <time>2019-09-17T13:58:14Z</time>
      </trkpt>
      <trkpt lat="43.61298" lon="6.55581">
        <ele>321</ele>
        <time>2019-09-17T13:58:22Z</time>
      </trkpt>
      <trkpt lat="43.61302" lon="6.5558">
        <ele>321</ele>
        <time>2019-09-17T13:58:29Z</time>
      </trkpt>
      <trkpt lat="43.61307" lon="6.55578">
        <ele>321.6</ele>
        <time>2019-09-17T13:58:33Z</time>
      </trkpt>
      <trkpt lat="43.61312" lon="6.55576">
        <ele>321.7</ele>
        <time>2019-09-17T13:58:39Z</time>
      </trkpt>
      <trkpt lat="43.61316" lon="6.55572">
        <ele>321.8</ele>
        <time>2019-09-17T13:58:43Z</time>
      </trkpt>
      <trkpt lat="43.61319" lon="6.55567">
        <ele>321.3</ele>
        <time>2019-09-17T13:58:51Z</time>
      </trkpt>
      <trkpt lat="43.61323" lon="6.55562">
        <ele>320.8</ele>
        <time>2019-09-17T13:58:55Z</time>
      </trkpt>
      <trkpt lat="43.61327" lon="6.55557">
        <ele>320.2</ele>
        <time>2019-09-17T13:58:59Z</time>
      </trkpt>
      <trkpt lat="43.61332" lon="6.55552">
        <ele>320.1</ele>
        <time>2019-09-17T13:59:16Z</time>
      </trkpt>
      <trkpt lat="43.61335" lon="6.55547">
        <ele>319.7</ele>
        <time>2019-09-17T13:59:19Z</time>
      </trkpt>
      <trkpt lat="43.61339" lon="6.55542">
        <ele>319.6</ele>
        <time>2019-09-17T13:59:22Z</time>
      </trkpt>
      <trkpt lat="43.61345" lon="6.55537">
        <ele>319.7</ele>
        <time>2019-09-17T13:59:25Z</time>
      </trkpt>
      <trkpt lat="43.61349" lon="6.55532">
        <ele>320.2</ele>
        <time>2019-09-17T13:59:28Z</time>
      </trkpt>
      <trkpt lat="43.61349" lon="6.55524">
        <ele>321</ele>
        <time>2019-09-17T13:59:31Z</time>
      </trkpt>
      <trkpt lat="43.61348" lon="6.55517">
        <ele>321.8</ele>
        <time>2019-09-17T13:59:35Z</time>
      </trkpt>
      <trkpt lat="43.61349" lon="6.5551">
        <ele>321.5</ele>
        <time>2019-09-17T13:59:38Z</time>
      </trkpt>
      <trkpt lat="43.61348" lon="6.55504">
        <ele>322.9</ele>
        <time>2019-09-17T13:59:45Z</time>
      </trkpt>
      <trkpt lat="43.61345" lon="6.55498">
        <ele>323.2</ele>
        <time>2019-09-17T13:59:51Z</time>
      </trkpt>
      <trkpt lat="43.61343" lon="6.55492">
        <ele>323</ele>
        <time>2019-09-17T13:59:56Z</time>
      </trkpt>
      <trkpt lat="43.61342" lon="6.55485">
        <ele>322.4</ele>
        <time>2019-09-17T14:00:01Z</time>
      </trkpt>
      <trkpt lat="43.61342" lon="6.55477">
        <ele>321.1</ele>
        <time>2019-09-17T14:00:04Z</time>
      </trkpt>
      <trkpt lat="43.61339" lon="6.55471">
        <ele>321.2</ele>
        <time>2019-09-17T14:00:10Z</time>
      </trkpt>
      <trkpt lat="43.61341" lon="6.55464">
        <ele>323.7</ele>
        <time>2019-09-17T14:00:19Z</time>
      </trkpt>
      <trkpt lat="43.6134" lon="6.55458">
        <ele>325</ele>
        <time>2019-09-17T14:00:29Z</time>
      </trkpt>
      <trkpt lat="43.6134" lon="6.55452">
        <ele>324.7</ele>
        <time>2019-09-17T14:00:35Z</time>
      </trkpt>
      <trkpt lat="43.61341" lon="6.55445">
        <ele>323.3</ele>
        <time>2019-09-17T14:00:42Z</time>
      </trkpt>
      <trkpt lat="43.61341" lon="6.55438">
        <ele>323</ele>
        <time>2019-09-17T14:00:45Z</time>
      </trkpt>
      <trkpt lat="43.61341" lon="6.55432">
        <ele>323.8</ele>
        <time>2019-09-17T14:00:49Z</time>
      </trkpt>
      <trkpt lat="43.61342" lon="6.55425">
        <ele>325.5</ele>
        <time>2019-09-17T14:00:58Z</time>
      </trkpt>
      <trkpt lat="43.61342" lon="6.55418">
        <ele>325.9</ele>
        <time>2019-09-17T14:01:02Z</time>
      </trkpt>
      <trkpt lat="43.61344" lon="6.55411">
        <ele>326</ele>
        <time>2019-09-17T14:01:08Z</time>
      </trkpt>
      <trkpt lat="43.61344" lon="6.55404">
        <ele>326.8</ele>
        <time>2019-09-17T14:01:14Z</time>
      </trkpt>
      <trkpt lat="43.6134" lon="6.55401">
        <ele>326.8</ele>
        <time>2019-09-17T14:01:17Z</time>
      </trkpt>
      <trkpt lat="43.61341" lon="6.55393">
        <ele>325.6</ele>
        <time>2019-09-17T14:01:22Z</time>
      </trkpt>
      <trkpt lat="43.61342" lon="6.55386">
        <ele>325.4</ele>
        <time>2019-09-17T14:01:26Z</time>
      </trkpt>
      <trkpt lat="43.61342" lon="6.55379">
        <ele>325.3</ele>
        <time>2019-09-17T14:01:41Z</time>
      </trkpt>
      <trkpt lat="43.61342" lon="6.55372">
        <ele>323.2</ele>
        <time>2019-09-17T14:01:45Z</time>
      </trkpt>
      <trkpt lat="43.61341" lon="6.55365">
        <ele>322.9</ele>
        <time>2019-09-17T14:01:48Z</time>
      </trkpt>
      <trkpt lat="43.61339" lon="6.55358">
        <ele>322.9</ele>
        <time>2019-09-17T14:01:51Z</time>
      </trkpt>
      <trkpt lat="43.61339" lon="6.55352">
        <ele>324.5</ele>
        <time>2019-09-17T14:01:56Z</time>
      </trkpt>
      <trkpt lat="43.61339" lon="6.55345">
        <ele>326.1</ele>
        <time>2019-09-17T14:02:01Z</time>
      </trkpt>
      <trkpt lat="43.61339" lon="6.55338">
        <ele>327.3</ele>
        <time>2019-09-17T14:02:07Z</time>
      </trkpt>
      <trkpt lat="43.6134" lon="6.55331">
        <ele>329</ele>
        <time>2019-09-17T14:02:16Z</time>
      </trkpt>
      <trkpt lat="43.61341" lon="6.55325">
        <ele>330.1</ele>
        <time>2019-09-17T14:02:23Z</time>
      </trkpt>
      <trkpt lat="43.61342" lon="6.55318">
        <ele>330.9</ele>
        <time>2019-09-17T14:02:31Z</time>
      </trkpt>
      <trkpt lat="43.61343" lon="6.55311">
        <ele>331.4</ele>
        <time>2019-09-17T14:02:34Z</time>
      </trkpt>
      <trkpt lat="43.61343" lon="6.55302">
        <ele>331.5</ele>
        <time>2019-09-17T14:02:38Z</time>
      </trkpt>
      <trkpt lat="43.61343" lon="6.55295">
        <ele>331.5</ele>
        <time>2019-09-17T14:02:40Z</time>
      </trkpt>
      <trkpt lat="43.61344" lon="6.55288">
        <ele>331.6</ele>
        <time>2019-09-17T14:02:43Z</time>
      </trkpt>
      <trkpt lat="43.61347" lon="6.55283">
        <ele>332</ele>
        <time>2019-09-17T14:02:49Z</time>
      </trkpt>
      <trkpt lat="43.6135" lon="6.55277">
        <ele>332.1</ele>
        <time>2019-09-17T14:02:53Z</time>
      </trkpt>
      <trkpt lat="43.61355" lon="6.55275">
        <ele>332.2</ele>
        <time>2019-09-17T14:02:57Z</time>
      </trkpt>
      <trkpt lat="43.61359" lon="6.55271">
        <ele>332.6</ele>
        <time>2019-09-17T14:03:14Z</time>
      </trkpt>
      <trkpt lat="43.61361" lon="6.55265">
        <ele>331.7</ele>
        <time>2019-09-17T14:03:19Z</time>
      </trkpt>
      <trkpt lat="43.61365" lon="6.55262">
        <ele>331.3</ele>
        <time>2019-09-17T14:03:25Z</time>
      </trkpt>
      <trkpt lat="43.6137" lon="6.55259">
        <ele>331.6</ele>
        <time>2019-09-17T14:03:29Z</time>
      </trkpt>
      <trkpt lat="43.61373" lon="6.55254">
        <ele>333.3</ele>
        <time>2019-09-17T14:03:40Z</time>
      </trkpt>
      <trkpt lat="43.61399" lon="6.55204">
        <ele>346.6</ele>
        <time>2019-09-17T14:04:27Z</time>
      </trkpt>
      <trkpt lat="43.61402" lon="6.552">
        <ele>347.9</ele>
        <time>2019-09-17T14:04:32Z</time>
      </trkpt>
      <trkpt lat="43.61405" lon="6.55195">
        <ele>347.6</ele>
        <time>2019-09-17T14:04:38Z</time>
      </trkpt>
      <trkpt lat="43.61407" lon="6.55189">
        <ele>346.6</ele>
        <time>2019-09-17T14:04:41Z</time>
      </trkpt>
      <trkpt lat="43.61411" lon="6.55183">
        <ele>345.6</ele>
        <time>2019-09-17T14:04:45Z</time>
      </trkpt>
      <trkpt lat="43.61414" lon="6.55177">
        <ele>344.6</ele>
        <time>2019-09-17T14:04:51Z</time>
      </trkpt>
      <trkpt lat="43.61416" lon="6.55172">
        <ele>343.9</ele>
        <time>2019-09-17T14:05:06Z</time>
      </trkpt>
      <trkpt lat="43.61416" lon="6.55165">
        <ele>343.3</ele>
        <time>2019-09-17T14:05:11Z</time>
      </trkpt>
      <trkpt lat="43.61419" lon="6.55159">
        <ele>342.8</ele>
        <time>2019-09-17T14:05:14Z</time>
      </trkpt>
      <trkpt lat="43.61422" lon="6.55152">
        <ele>342</ele>
        <time>2019-09-17T14:05:19Z</time>
      </trkpt>
      <trkpt lat="43.61425" lon="6.55145">
        <ele>341.4</ele>
        <time>2019-09-17T14:05:22Z</time>
      </trkpt>
      <trkpt lat="43.61428" lon="6.55139">
        <ele>340.4</ele>
        <time>2019-09-17T14:05:32Z</time>
      </trkpt>
      <trkpt lat="43.61431" lon="6.55129">
        <ele>338.5</ele>
        <time>2019-09-17T14:05:35Z</time>
      </trkpt>
      <trkpt lat="43.61434" lon="6.55122">
        <ele>337.3</ele>
        <time>2019-09-17T14:05:37Z</time>
      </trkpt>
      <trkpt lat="43.61436" lon="6.55116">
        <ele>336.4</ele>
        <time>2019-09-17T14:05:39Z</time>
      </trkpt>
      <trkpt lat="43.6144" lon="6.55112">
        <ele>335.9</ele>
        <time>2019-09-17T14:05:42Z</time>
      </trkpt>
      <trkpt lat="43.61445" lon="6.55112">
        <ele>335.2</ele>
        <time>2019-09-17T14:05:45Z</time>
      </trkpt>
      <trkpt lat="43.6145" lon="6.5511">
        <ele>335.5</ele>
        <time>2019-09-17T14:05:50Z</time>
      </trkpt>
      <trkpt lat="43.61454" lon="6.55107">
        <ele>336.1</ele>
        <time>2019-09-17T14:05:55Z</time>
      </trkpt>
      <trkpt lat="43.61459" lon="6.55104">
        <ele>335.9</ele>
        <time>2019-09-17T14:06:02Z</time>
      </trkpt>
      <trkpt lat="43.61463" lon="6.55107">
        <ele>337.7</ele>
        <time>2019-09-17T14:06:09Z</time>
      </trkpt>
      <trkpt lat="43.61463" lon="6.55114">
        <ele>338.7</ele>
        <time>2019-09-17T14:06:14Z</time>
      </trkpt>
      <trkpt lat="43.61464" lon="6.5512">
        <ele>339.4</ele>
        <time>2019-09-17T14:06:19Z</time>
      </trkpt>
      <trkpt lat="43.61465" lon="6.55127">
        <ele>340</ele>
        <time>2019-09-17T14:06:25Z</time>
      </trkpt>
      <trkpt lat="43.61466" lon="6.55134">
        <ele>338.7</ele>
        <time>2019-09-17T14:06:33Z</time>
      </trkpt>
      <trkpt lat="43.61469" lon="6.5514">
        <ele>338.1</ele>
        <time>2019-09-17T14:06:36Z</time>
      </trkpt>
      <trkpt lat="43.61471" lon="6.55145">
        <ele>338.1</ele>
        <time>2019-09-17T14:06:39Z</time>
      </trkpt>
      <trkpt lat="43.61471" lon="6.55151">
        <ele>338.9</ele>
        <time>2019-09-17T14:06:48Z</time>
      </trkpt>
      <trkpt lat="43.61472" lon="6.55158">
        <ele>341.3</ele>
        <time>2019-09-17T14:06:55Z</time>
      </trkpt>
      <trkpt lat="43.61475" lon="6.55163">
        <ele>344.4</ele>
        <time>2019-09-17T14:07:20Z</time>
      </trkpt>
      <trkpt lat="43.61479" lon="6.55167">
        <ele>335</ele>
        <time>2019-09-17T14:08:26Z</time>
      </trkpt>
      <trkpt lat="43.61481" lon="6.55162">
        <ele>327.4</ele>
        <time>2019-09-17T14:08:51Z</time>
      </trkpt>
      <trkpt lat="43.61476" lon="6.55165">
        <ele>330.7</ele>
        <time>2019-09-17T14:09:23Z</time>
      </trkpt>
      <trkpt lat="43.61479" lon="6.55159">
        <ele>331.7</ele>
        <time>2019-09-17T14:09:32Z</time>
      </trkpt>
      <trkpt lat="43.61477" lon="6.55166">
        <ele>336.9</ele>
        <time>2019-09-17T14:09:55Z</time>
      </trkpt>
      <trkpt lat="43.61479" lon="6.55174">
        <ele>334.8</ele>
        <time>2019-09-17T14:10:00Z</time>
      </trkpt>
      <trkpt lat="43.61482" lon="6.5518">
        <ele>332.9</ele>
        <time>2019-09-17T14:10:03Z</time>
      </trkpt>
      <trkpt lat="43.61477" lon="6.55181">
        <ele>330.7</ele>
        <time>2019-09-17T14:10:13Z</time>
      </trkpt>
      <trkpt lat="43.61475" lon="6.55187">
        <ele>333.8</ele>
        <time>2019-09-17T14:10:23Z</time>
      </trkpt>
      <trkpt lat="43.61475" lon="6.55194">
        <ele>337</ele>
        <time>2019-09-17T14:10:34Z</time>
      </trkpt>
      <trkpt lat="43.61477" lon="6.55201">
        <ele>337.2</ele>
        <time>2019-09-17T14:10:40Z</time>
      </trkpt>
      <trkpt lat="43.61476" lon="6.55209">
        <ele>335.5</ele>
        <time>2019-09-17T14:10:43Z</time>
      </trkpt>
      <trkpt lat="43.61475" lon="6.55215">
        <ele>333.9</ele>
        <time>2019-09-17T14:10:53Z</time>
      </trkpt>
      <trkpt lat="43.61476" lon="6.55221">
        <ele>335.3</ele>
        <time>2019-09-17T14:10:58Z</time>
      </trkpt>
      <trkpt lat="43.61476" lon="6.55227">
        <ele>337.8</ele>
        <time>2019-09-17T14:11:10Z</time>
      </trkpt>
      <trkpt lat="43.61476" lon="6.55235">
        <ele>337.6</ele>
        <time>2019-09-17T14:11:15Z</time>
      </trkpt>
      <trkpt lat="43.61476" lon="6.55241">
        <ele>338.7</ele>
        <time>2019-09-17T14:11:20Z</time>
      </trkpt>
      <trkpt lat="43.61475" lon="6.55248">
        <ele>341.1</ele>
        <time>2019-09-17T14:11:27Z</time>
      </trkpt>
      <trkpt lat="43.61475" lon="6.55255">
        <ele>341.7</ele>
        <time>2019-09-17T14:11:30Z</time>
      </trkpt>
      <trkpt lat="43.61473" lon="6.55261">
        <ele>343.2</ele>
        <time>2019-09-17T14:11:37Z</time>
      </trkpt>
      <trkpt lat="43.61472" lon="6.55268">
        <ele>343.7</ele>
        <time>2019-09-17T14:11:50Z</time>
      </trkpt>
      <trkpt lat="43.61471" lon="6.55275">
        <ele>344.6</ele>
        <time>2019-09-17T14:11:53Z</time>
      </trkpt>
      <trkpt lat="43.61475" lon="6.55278">
        <ele>343.8</ele>
        <time>2019-09-17T14:11:59Z</time>
      </trkpt>
      <trkpt lat="43.6148" lon="6.55283">
        <ele>343.2</ele>
        <time>2019-09-17T14:12:04Z</time>
      </trkpt>
      <trkpt lat="43.61481" lon="6.5529">
        <ele>343.8</ele>
        <time>2019-09-17T14:12:07Z</time>
      </trkpt>
      <trkpt lat="43.61483" lon="6.55296">
        <ele>345.5</ele>
        <time>2019-09-17T14:12:16Z</time>
      </trkpt>
      <trkpt lat="43.61486" lon="6.55301">
        <ele>345.8</ele>
        <time>2019-09-17T14:12:20Z</time>
      </trkpt>
      <trkpt lat="43.61487" lon="6.55309">
        <ele>345.8</ele>
        <time>2019-09-17T14:12:24Z</time>
      </trkpt>
      <trkpt lat="43.6149" lon="6.55314">
        <ele>346.3</ele>
        <time>2019-09-17T14:12:30Z</time>
      </trkpt>
      <trkpt lat="43.61493" lon="6.55318">
        <ele>346.3</ele>
        <time>2019-09-17T14:12:33Z</time>
      </trkpt>
      <trkpt lat="43.61497" lon="6.55323">
        <ele>346.5</ele>
        <time>2019-09-17T14:12:37Z</time>
      </trkpt>
      <trkpt lat="43.61501" lon="6.55327">
        <ele>345.6</ele>
        <time>2019-09-17T14:12:40Z</time>
      </trkpt>
      <trkpt lat="43.61505" lon="6.55333">
        <ele>345.6</ele>
        <time>2019-09-17T14:12:45Z</time>
      </trkpt>
      <trkpt lat="43.61507" lon="6.55339">
        <ele>346.5</ele>
        <time>2019-09-17T14:12:51Z</time>
      </trkpt>
      <trkpt lat="43.61508" lon="6.55345">
        <ele>347.2</ele>
        <time>2019-09-17T14:12:55Z</time>
      </trkpt>
      <trkpt lat="43.6151" lon="6.55352">
        <ele>348.5</ele>
        <time>2019-09-17T14:13:05Z</time>
      </trkpt>
      <trkpt lat="43.61511" lon="6.5536">
        <ele>349.5</ele>
        <time>2019-09-17T14:13:09Z</time>
      </trkpt>
      <trkpt lat="43.61514" lon="6.55368">
        <ele>350.6</ele>
        <time>2019-09-17T14:13:16Z</time>
      </trkpt>
      <trkpt lat="43.61515" lon="6.55376">
        <ele>349.2</ele>
        <time>2019-09-17T14:13:20Z</time>
      </trkpt>
      <trkpt lat="43.61516" lon="6.55382">
        <ele>347.8</ele>
        <time>2019-09-17T14:13:23Z</time>
      </trkpt>
      <trkpt lat="43.61517" lon="6.55388">
        <ele>347.2</ele>
        <time>2019-09-17T14:13:26Z</time>
      </trkpt>
      <trkpt lat="43.61518" lon="6.55397">
        <ele>346</ele>
        <time>2019-09-17T14:13:29Z</time>
      </trkpt>
      <trkpt lat="43.61519" lon="6.55403">
        <ele>345.5</ele>
        <time>2019-09-17T14:13:32Z</time>
      </trkpt>
      <trkpt lat="43.61519" lon="6.5541">
        <ele>345.3</ele>
        <time>2019-09-17T14:13:36Z</time>
      </trkpt>
      <trkpt lat="43.61519" lon="6.55418">
        <ele>345.7</ele>
        <time>2019-09-17T14:13:42Z</time>
      </trkpt>
      <trkpt lat="43.61519" lon="6.55425">
        <ele>346.1</ele>
        <time>2019-09-17T14:13:47Z</time>
      </trkpt>
      <trkpt lat="43.61521" lon="6.55433">
        <ele>345.7</ele>
        <time>2019-09-17T14:13:55Z</time>
      </trkpt>
      <trkpt lat="43.61519" lon="6.55439">
        <ele>343.7</ele>
        <time>2019-09-17T14:13:59Z</time>
      </trkpt>
      <trkpt lat="43.61519" lon="6.55445">
        <ele>343.7</ele>
        <time>2019-09-17T14:14:02Z</time>
      </trkpt>
      <trkpt lat="43.6152" lon="6.55452">
        <ele>343.5</ele>
        <time>2019-09-17T14:14:06Z</time>
      </trkpt>
      <trkpt lat="43.61522" lon="6.55459">
        <ele>342.1</ele>
        <time>2019-09-17T14:14:12Z</time>
      </trkpt>
      <trkpt lat="43.61522" lon="6.55466">
        <ele>342.4</ele>
        <time>2019-09-17T14:14:20Z</time>
      </trkpt>
      <trkpt lat="43.61521" lon="6.55474">
        <ele>343.3</ele>
        <time>2019-09-17T14:14:24Z</time>
      </trkpt>
      <trkpt lat="43.61519" lon="6.5548">
        <ele>344.6</ele>
        <time>2019-09-17T14:14:30Z</time>
      </trkpt>
      <trkpt lat="43.61518" lon="6.55488">
        <ele>345.3</ele>
        <time>2019-09-17T14:14:35Z</time>
      </trkpt>
      <trkpt lat="43.61517" lon="6.55494">
        <ele>346.1</ele>
        <time>2019-09-17T14:14:38Z</time>
      </trkpt>
      <trkpt lat="43.61518" lon="6.55503">
        <ele>347.1</ele>
        <time>2019-09-17T14:14:48Z</time>
      </trkpt>
      <trkpt lat="43.61518" lon="6.5551">
        <ele>347.2</ele>
        <time>2019-09-17T14:14:50Z</time>
      </trkpt>
      <trkpt lat="43.6152" lon="6.55517">
        <ele>347.4</ele>
        <time>2019-09-17T14:14:52Z</time>
      </trkpt>
      <trkpt lat="43.6152" lon="6.55523">
        <ele>347.5</ele>
        <time>2019-09-17T14:14:55Z</time>
      </trkpt>
      <trkpt lat="43.61519" lon="6.5553">
        <ele>348.1</ele>
        <time>2019-09-17T14:14:59Z</time>
      </trkpt>
      <trkpt lat="43.6152" lon="6.55537">
        <ele>348.7</ele>
        <time>2019-09-17T14:15:04Z</time>
      </trkpt>
      <trkpt lat="43.61519" lon="6.55544">
        <ele>348.5</ele>
        <time>2019-09-17T14:15:09Z</time>
      </trkpt>
      <trkpt lat="43.61518" lon="6.55551">
        <ele>347.4</ele>
        <time>2019-09-17T14:15:15Z</time>
      </trkpt>
      <trkpt lat="43.6152" lon="6.55558">
        <ele>347.9</ele>
        <time>2019-09-17T14:15:20Z</time>
      </trkpt>
      <trkpt lat="43.61524" lon="6.55564">
        <ele>348.4</ele>
        <time>2019-09-17T14:15:23Z</time>
      </trkpt>
      <trkpt lat="43.61525" lon="6.55571">
        <ele>345.7</ele>
        <time>2019-09-17T14:15:29Z</time>
      </trkpt>
      <trkpt lat="43.6153" lon="6.55574">
        <ele>346.1</ele>
        <time>2019-09-17T14:15:33Z</time>
      </trkpt>
      <trkpt lat="43.61535" lon="6.55576">
        <ele>346.9</ele>
        <time>2019-09-17T14:15:37Z</time>
      </trkpt>
      <trkpt lat="43.61539" lon="6.55579">
        <ele>348.3</ele>
        <time>2019-09-17T14:15:44Z</time>
      </trkpt>
      <trkpt lat="43.61543" lon="6.55583">
        <ele>346.9</ele>
        <time>2019-09-17T14:15:51Z</time>
      </trkpt>
      <trkpt lat="43.61547" lon="6.55588">
        <ele>347.1</ele>
        <time>2019-09-17T14:15:57Z</time>
      </trkpt>
      <trkpt lat="43.61551" lon="6.55592">
        <ele>348.2</ele>
        <time>2019-09-17T14:16:02Z</time>
      </trkpt>
      <trkpt lat="43.61553" lon="6.55598">
        <ele>350</ele>
        <time>2019-09-17T14:16:09Z</time>
      </trkpt>
      <trkpt lat="43.61555" lon="6.55604">
        <ele>351.2</ele>
        <time>2019-09-17T14:16:21Z</time>
      </trkpt>
      <trkpt lat="43.61558" lon="6.5561">
        <ele>351.5</ele>
        <time>2019-09-17T14:16:25Z</time>
      </trkpt>
      <trkpt lat="43.6156" lon="6.55617">
        <ele>351.2</ele>
        <time>2019-09-17T14:16:30Z</time>
      </trkpt>
      <trkpt lat="43.61561" lon="6.55623">
        <ele>350.8</ele>
        <time>2019-09-17T14:16:35Z</time>
      </trkpt>
      <trkpt lat="43.61564" lon="6.5563">
        <ele>350.7</ele>
        <time>2019-09-17T14:16:43Z</time>
      </trkpt>
      <trkpt lat="43.61567" lon="6.55637">
        <ele>350.7</ele>
        <time>2019-09-17T14:16:48Z</time>
      </trkpt>
      <trkpt lat="43.6157" lon="6.55642">
        <ele>351.1</ele>
        <time>2019-09-17T14:16:51Z</time>
      </trkpt>
      <trkpt lat="43.61573" lon="6.55648">
        <ele>351.7</ele>
        <time>2019-09-17T14:17:03Z</time>
      </trkpt>
      <trkpt lat="43.61576" lon="6.55654">
        <ele>351.9</ele>
        <time>2019-09-17T14:17:05Z</time>
      </trkpt>
      <trkpt lat="43.6158" lon="6.55661">
        <ele>351.8</ele>
        <time>2019-09-17T14:17:07Z</time>
      </trkpt>
      <trkpt lat="43.61583" lon="6.55666">
        <ele>351.9</ele>
        <time>2019-09-17T14:17:09Z</time>
      </trkpt>
      <trkpt lat="43.61586" lon="6.55671">
        <ele>352</ele>
        <time>2019-09-17T14:17:12Z</time>
      </trkpt>
      <trkpt lat="43.61589" lon="6.55675">
        <ele>352.5</ele>
        <time>2019-09-17T14:17:17Z</time>
      </trkpt>
      <trkpt lat="43.61592" lon="6.55682">
        <ele>353.8</ele>
        <time>2019-09-17T14:17:25Z</time>
      </trkpt>
      <trkpt lat="43.61595" lon="6.55688">
        <ele>355</ele>
        <time>2019-09-17T14:17:29Z</time>
      </trkpt>
      <trkpt lat="43.61599" lon="6.55693">
        <ele>355.7</ele>
        <time>2019-09-17T14:17:33Z</time>
      </trkpt>
      <trkpt lat="43.61601" lon="6.55699">
        <ele>356.2</ele>
        <time>2019-09-17T14:17:38Z</time>
      </trkpt>
      <trkpt lat="43.61604" lon="6.55705">
        <ele>356.7</ele>
        <time>2019-09-17T14:17:46Z</time>
      </trkpt>
      <trkpt lat="43.61608" lon="6.5571">
        <ele>356.4</ele>
        <time>2019-09-17T14:17:50Z</time>
      </trkpt>
      <trkpt lat="43.6161" lon="6.55717">
        <ele>356.2</ele>
        <time>2019-09-17T14:17:58Z</time>
      </trkpt>
      <trkpt lat="43.61613" lon="6.55723">
        <ele>356.2</ele>
        <time>2019-09-17T14:18:02Z</time>
      </trkpt>
      <trkpt lat="43.61617" lon="6.55729">
        <ele>356</ele>
        <time>2019-09-17T14:18:07Z</time>
      </trkpt>
      <trkpt lat="43.6162" lon="6.55736">
        <ele>356.1</ele>
        <time>2019-09-17T14:18:11Z</time>
      </trkpt>
      <trkpt lat="43.61623" lon="6.55742">
        <ele>356.1</ele>
        <time>2019-09-17T14:18:15Z</time>
      </trkpt>
      <trkpt lat="43.61627" lon="6.55748">
        <ele>356.3</ele>
        <time>2019-09-17T14:18:19Z</time>
      </trkpt>
      <trkpt lat="43.6163" lon="6.55753">
        <ele>356.3</ele>
        <time>2019-09-17T14:18:23Z</time>
      </trkpt>
      <trkpt lat="43.61633" lon="6.5576">
        <ele>356.1</ele>
        <time>2019-09-17T14:18:27Z</time>
      </trkpt>
      <trkpt lat="43.61636" lon="6.55765">
        <ele>356</ele>
        <time>2019-09-17T14:18:31Z</time>
      </trkpt>
      <trkpt lat="43.6164" lon="6.55771">
        <ele>356.3</ele>
        <time>2019-09-17T14:18:36Z</time>
      </trkpt>
      <trkpt lat="43.61644" lon="6.55776">
        <ele>356.7</ele>
        <time>2019-09-17T14:18:41Z</time>
      </trkpt>
      <trkpt lat="43.61649" lon="6.5578">
        <ele>357.4</ele>
        <time>2019-09-17T14:18:44Z</time>
      </trkpt>
      <trkpt lat="43.61652" lon="6.55786">
        <ele>356.7</ele>
        <time>2019-09-17T14:18:46Z</time>
      </trkpt>
      <trkpt lat="43.61655" lon="6.55791">
        <ele>356.7</ele>
        <time>2019-09-17T14:18:51Z</time>
      </trkpt>
      <trkpt lat="43.61658" lon="6.55796">
        <ele>357.2</ele>
        <time>2019-09-17T14:18:57Z</time>
      </trkpt>
      <trkpt lat="43.61662" lon="6.55801">
        <ele>356.7</ele>
        <time>2019-09-17T14:19:03Z</time>
      </trkpt>
      <trkpt lat="43.61666" lon="6.55805">
        <ele>356.2</ele>
        <time>2019-09-17T14:19:10Z</time>
      </trkpt>
      <trkpt lat="43.61669" lon="6.55811">
        <ele>356.1</ele>
        <time>2019-09-17T14:19:14Z</time>
      </trkpt>
      <trkpt lat="43.61673" lon="6.55815">
        <ele>356.1</ele>
        <time>2019-09-17T14:19:20Z</time>
      </trkpt>
      <trkpt lat="43.61676" lon="6.5582">
        <ele>356.6</ele>
        <time>2019-09-17T14:19:25Z</time>
      </trkpt>
      <trkpt lat="43.6168" lon="6.55825">
        <ele>356.7</ele>
        <time>2019-09-17T14:19:30Z</time>
      </trkpt>
      <trkpt lat="43.61683" lon="6.5583">
        <ele>357.1</ele>
        <time>2019-09-17T14:19:35Z</time>
      </trkpt>
      <trkpt lat="43.61687" lon="6.55835">
        <ele>357.5</ele>
        <time>2019-09-17T14:19:39Z</time>
      </trkpt>
      <trkpt lat="43.6169" lon="6.55839">
        <ele>358.1</ele>
        <time>2019-09-17T14:19:44Z</time>
      </trkpt>
      <trkpt lat="43.61696" lon="6.55842">
        <ele>357.8</ele>
        <time>2019-09-17T14:19:48Z</time>
      </trkpt>
      <trkpt lat="43.617" lon="6.55845">
        <ele>358.5</ele>
        <time>2019-09-17T14:19:59Z</time>
      </trkpt>
      <trkpt lat="43.61705" lon="6.55847">
        <ele>358.8</ele>
        <time>2019-09-17T14:20:02Z</time>
      </trkpt>
      <trkpt lat="43.61709" lon="6.55848">
        <ele>359.2</ele>
        <time>2019-09-17T14:20:06Z</time>
      </trkpt>
      <trkpt lat="43.61714" lon="6.55849">
        <ele>359.1</ele>
        <time>2019-09-17T14:21:02Z</time>
      </trkpt>
      <trkpt lat="43.61715" lon="6.55843">
        <ele>359.3</ele>
        <time>2019-09-17T14:21:25Z</time>
      </trkpt>
      <trkpt lat="43.61719" lon="6.55848">
        <ele>358.6</ele>
        <time>2019-09-17T14:22:12Z</time>
      </trkpt>
      <trkpt lat="43.61716" lon="6.55853">
        <ele>360.3</ele>
        <time>2019-09-17T14:22:34Z</time>
      </trkpt>
      <trkpt lat="43.6172" lon="6.55856">
        <ele>360.8</ele>
        <time>2019-09-17T14:22:58Z</time>
      </trkpt>
      <trkpt lat="43.61725" lon="6.55858">
        <ele>361</ele>
        <time>2019-09-17T14:23:05Z</time>
      </trkpt>
      <trkpt lat="43.61729" lon="6.55858">
        <ele>361.6</ele>
        <time>2019-09-17T14:23:12Z</time>
      </trkpt>
      <trkpt lat="43.61735" lon="6.55858">
        <ele>362.2</ele>
        <time>2019-09-17T14:23:21Z</time>
      </trkpt>
      <trkpt lat="43.61737" lon="6.55863">
        <ele>361</ele>
        <time>2019-09-17T14:23:27Z</time>
      </trkpt>
      <trkpt lat="43.61737" lon="6.55869">
        <ele>357.9</ele>
        <time>2019-09-17T14:23:43Z</time>
      </trkpt>
      <trkpt lat="43.6174" lon="6.55874">
        <ele>355.6</ele>
        <time>2019-09-17T14:24:02Z</time>
      </trkpt>
      <trkpt lat="43.6174" lon="6.55882">
        <ele>354.2</ele>
        <time>2019-09-17T14:24:06Z</time>
      </trkpt>
      <trkpt lat="43.61739" lon="6.55888">
        <ele>352.9</ele>
        <time>2019-09-17T14:24:10Z</time>
      </trkpt>
      <trkpt lat="43.61736" lon="6.55894">
        <ele>352.3</ele>
        <time>2019-09-17T14:24:18Z</time>
      </trkpt>
      <trkpt lat="43.61735" lon="6.559">
        <ele>351.6</ele>
        <time>2019-09-17T14:24:31Z</time>
      </trkpt>
      <trkpt lat="43.61735" lon="6.55906">
        <ele>351.8</ele>
        <time>2019-09-17T14:24:36Z</time>
      </trkpt>
      <trkpt lat="43.61737" lon="6.55913">
        <ele>351.9</ele>
        <time>2019-09-17T14:24:45Z</time>
      </trkpt>
      <trkpt lat="43.61738" lon="6.5592">
        <ele>352.3</ele>
        <time>2019-09-17T14:24:57Z</time>
      </trkpt>
      <trkpt lat="43.61741" lon="6.55926">
        <ele>351.8</ele>
        <time>2019-09-17T14:25:01Z</time>
      </trkpt>
      <trkpt lat="43.61744" lon="6.55932">
        <ele>350.3</ele>
        <time>2019-09-17T14:25:06Z</time>
      </trkpt>
      <trkpt lat="43.61749" lon="6.55935">
        <ele>347.7</ele>
        <time>2019-09-17T14:25:10Z</time>
      </trkpt>
      <trkpt lat="43.6175" lon="6.55942">
        <ele>347.4</ele>
        <time>2019-09-17T14:25:15Z</time>
      </trkpt>
      <trkpt lat="43.61751" lon="6.55949">
        <ele>347.1</ele>
        <time>2019-09-17T14:25:21Z</time>
      </trkpt>
      <trkpt lat="43.61751" lon="6.55955">
        <ele>347.4</ele>
        <time>2019-09-17T14:25:31Z</time>
      </trkpt>
      <trkpt lat="43.61752" lon="6.55962">
        <ele>347.1</ele>
        <time>2019-09-17T14:25:36Z</time>
      </trkpt>
      <trkpt lat="43.61754" lon="6.55977">
        <ele>340.9</ele>
        <time>2019-09-17T14:26:22Z</time>
      </trkpt>
      <trkpt lat="43.61758" lon="6.55982">
        <ele>341.5</ele>
        <time>2019-09-17T14:26:27Z</time>
      </trkpt>
      <trkpt lat="43.6176" lon="6.55988">
        <ele>342.1</ele>
        <time>2019-09-17T14:26:37Z</time>
      </trkpt>
      <trkpt lat="43.61762" lon="6.55994">
        <ele>341.5</ele>
        <time>2019-09-17T14:26:46Z</time>
      </trkpt>
      <trkpt lat="43.61764" lon="6.56">
        <ele>341.3</ele>
        <time>2019-09-17T14:26:49Z</time>
      </trkpt>
      <trkpt lat="43.61766" lon="6.56006">
        <ele>341.5</ele>
        <time>2019-09-17T14:26:54Z</time>
      </trkpt>
      <trkpt lat="43.61769" lon="6.56012">
        <ele>342.2</ele>
        <time>2019-09-17T14:26:58Z</time>
      </trkpt>
      <trkpt lat="43.61772" lon="6.56019">
        <ele>339.7</ele>
        <time>2019-09-17T14:27:02Z</time>
      </trkpt>
      <trkpt lat="43.61772" lon="6.56026">
        <ele>337.5</ele>
        <time>2019-09-17T14:27:08Z</time>
      </trkpt>
      <trkpt lat="43.61774" lon="6.56032">
        <ele>337.1</ele>
        <time>2019-09-17T14:27:17Z</time>
      </trkpt>
      <trkpt lat="43.61777" lon="6.56038">
        <ele>337.7</ele>
        <time>2019-09-17T14:27:25Z</time>
      </trkpt>
      <trkpt lat="43.6178" lon="6.56043">
        <ele>338.2</ele>
        <time>2019-09-17T14:27:29Z</time>
      </trkpt>
      <trkpt lat="43.61783" lon="6.56049">
        <ele>339.2</ele>
        <time>2019-09-17T14:27:35Z</time>
      </trkpt>
      <trkpt lat="43.61784" lon="6.56055">
        <ele>339.9</ele>
        <time>2019-09-17T14:27:39Z</time>
      </trkpt>
      <trkpt lat="43.61787" lon="6.56062">
        <ele>340.4</ele>
        <time>2019-09-17T14:27:45Z</time>
      </trkpt>
      <trkpt lat="43.61789" lon="6.56067">
        <ele>340.5</ele>
        <time>2019-09-17T14:27:51Z</time>
      </trkpt>
      <trkpt lat="43.61791" lon="6.56074">
        <ele>340.3</ele>
        <time>2019-09-17T14:27:56Z</time>
      </trkpt>
      <trkpt lat="43.61793" lon="6.56079">
        <ele>340</ele>
        <time>2019-09-17T14:28:00Z</time>
      </trkpt>
      <trkpt lat="43.61797" lon="6.56084">
        <ele>339.7</ele>
        <time>2019-09-17T14:28:04Z</time>
      </trkpt>
      <trkpt lat="43.618" lon="6.56089">
        <ele>339.3</ele>
        <time>2019-09-17T14:28:09Z</time>
      </trkpt>
      <trkpt lat="43.61804" lon="6.56094">
        <ele>339</ele>
        <time>2019-09-17T14:28:15Z</time>
      </trkpt>
      <trkpt lat="43.61807" lon="6.56098">
        <ele>339</ele>
        <time>2019-09-17T14:28:22Z</time>
      </trkpt>
      <trkpt lat="43.61811" lon="6.56103">
        <ele>338.8</ele>
        <time>2019-09-17T14:28:27Z</time>
      </trkpt>
      <trkpt lat="43.61815" lon="6.56108">
        <ele>338.4</ele>
        <time>2019-09-17T14:28:31Z</time>
      </trkpt>
      <trkpt lat="43.61818" lon="6.56113">
        <ele>338.2</ele>
        <time>2019-09-17T14:28:36Z</time>
      </trkpt>
      <trkpt lat="43.6182" lon="6.56119">
        <ele>338.8</ele>
        <time>2019-09-17T14:28:41Z</time>
      </trkpt>
      <trkpt lat="43.61823" lon="6.56125">
        <ele>339.6</ele>
        <time>2019-09-17T14:28:47Z</time>
      </trkpt>
      <trkpt lat="43.61824" lon="6.56132">
        <ele>339.3</ele>
        <time>2019-09-17T14:28:53Z</time>
      </trkpt>
      <trkpt lat="43.61823" lon="6.56139">
        <ele>339</ele>
        <time>2019-09-17T14:28:59Z</time>
      </trkpt>
      <trkpt lat="43.61823" lon="6.56145">
        <ele>339.8</ele>
        <time>2019-09-17T14:29:03Z</time>
      </trkpt>
      <trkpt lat="43.61825" lon="6.56152">
        <ele>340.3</ele>
        <time>2019-09-17T14:29:08Z</time>
      </trkpt>
      <trkpt lat="43.61825" lon="6.56158">
        <ele>341</ele>
        <time>2019-09-17T14:29:12Z</time>
      </trkpt>
      <trkpt lat="43.61824" lon="6.56165">
        <ele>341.6</ele>
        <time>2019-09-17T14:29:17Z</time>
      </trkpt>
      <trkpt lat="43.61823" lon="6.56172">
        <ele>341.6</ele>
        <time>2019-09-17T14:29:22Z</time>
      </trkpt>
      <trkpt lat="43.61823" lon="6.56178">
        <ele>341.5</ele>
        <time>2019-09-17T14:29:26Z</time>
      </trkpt>
      <trkpt lat="43.61822" lon="6.56184">
        <ele>341.3</ele>
        <time>2019-09-17T14:29:31Z</time>
      </trkpt>
      <trkpt lat="43.6182" lon="6.56192">
        <ele>341.1</ele>
        <time>2019-09-17T14:29:37Z</time>
      </trkpt>
      <trkpt lat="43.61818" lon="6.562">
        <ele>340.7</ele>
        <time>2019-09-17T14:29:43Z</time>
      </trkpt>
      <trkpt lat="43.61816" lon="6.56206">
        <ele>340</ele>
        <time>2019-09-17T14:29:48Z</time>
      </trkpt>
      <trkpt lat="43.61815" lon="6.56214">
        <ele>339.3</ele>
        <time>2019-09-17T14:29:52Z</time>
      </trkpt>
      <trkpt lat="43.61816" lon="6.5622">
        <ele>338.5</ele>
        <time>2019-09-17T14:29:57Z</time>
      </trkpt>
      <trkpt lat="43.61816" lon="6.56227">
        <ele>338.4</ele>
        <time>2019-09-17T14:30:02Z</time>
      </trkpt>
      <trkpt lat="43.61818" lon="6.56232">
        <ele>338.4</ele>
        <time>2019-09-17T14:30:06Z</time>
      </trkpt>
      <trkpt lat="43.6182" lon="6.56239">
        <ele>338.6</ele>
        <time>2019-09-17T14:30:11Z</time>
      </trkpt>
      <trkpt lat="43.61822" lon="6.56244">
        <ele>339.1</ele>
        <time>2019-09-17T14:30:16Z</time>
      </trkpt>
      <trkpt lat="43.61824" lon="6.56251">
        <ele>339.8</ele>
        <time>2019-09-17T14:30:22Z</time>
      </trkpt>
      <trkpt lat="43.61826" lon="6.56257">
        <ele>339.9</ele>
        <time>2019-09-17T14:30:27Z</time>
      </trkpt>
      <trkpt lat="43.61828" lon="6.56262">
        <ele>339.2</ele>
        <time>2019-09-17T14:30:30Z</time>
      </trkpt>
      <trkpt lat="43.61832" lon="6.56266">
        <ele>338.1</ele>
        <time>2019-09-17T14:30:32Z</time>
      </trkpt>
      <trkpt lat="43.61833" lon="6.56273">
        <ele>338.3</ele>
        <time>2019-09-17T14:30:37Z</time>
      </trkpt>
      <trkpt lat="43.61833" lon="6.5628">
        <ele>338.4</ele>
        <time>2019-09-17T14:30:42Z</time>
      </trkpt>
      <trkpt lat="43.61835" lon="6.56287">
        <ele>339.1</ele>
        <time>2019-09-17T14:30:47Z</time>
      </trkpt>
      <trkpt lat="43.61837" lon="6.56294">
        <ele>339.7</ele>
        <time>2019-09-17T14:30:53Z</time>
      </trkpt>
      <trkpt lat="43.61839" lon="6.563">
        <ele>340.2</ele>
        <time>2019-09-17T14:30:57Z</time>
      </trkpt>
      <trkpt lat="43.6184" lon="6.56307">
        <ele>340.4</ele>
        <time>2019-09-17T14:31:05Z</time>
      </trkpt>
      <trkpt lat="43.61842" lon="6.56314">
        <ele>340.4</ele>
        <time>2019-09-17T14:31:08Z</time>
      </trkpt>
      <trkpt lat="43.61848" lon="6.56317">
        <ele>338.5</ele>
        <time>2019-09-17T14:31:10Z</time>
      </trkpt>
      <trkpt lat="43.61848" lon="6.56324">
        <ele>335.5</ele>
        <time>2019-09-17T14:31:15Z</time>
      </trkpt>
      <trkpt lat="43.61847" lon="6.56331">
        <ele>334.3</ele>
        <time>2019-09-17T14:31:20Z</time>
      </trkpt>
      <trkpt lat="43.61846" lon="6.56338">
        <ele>334</ele>
        <time>2019-09-17T14:31:25Z</time>
      </trkpt>
      <trkpt lat="43.61846" lon="6.56345">
        <ele>334.4</ele>
        <time>2019-09-17T14:31:31Z</time>
      </trkpt>
      <trkpt lat="43.61846" lon="6.56351">
        <ele>334.8</ele>
        <time>2019-09-17T14:31:36Z</time>
      </trkpt>
      <trkpt lat="43.61849" lon="6.56356">
        <ele>336</ele>
        <time>2019-09-17T14:31:44Z</time>
      </trkpt>
      <trkpt lat="43.61851" lon="6.56363">
        <ele>336.8</ele>
        <time>2019-09-17T14:31:49Z</time>
      </trkpt>
      <trkpt lat="43.6185" lon="6.5637">
        <ele>337.3</ele>
        <time>2019-09-17T14:31:54Z</time>
      </trkpt>
      <trkpt lat="43.6185" lon="6.56379">
        <ele>338</ele>
        <time>2019-09-17T14:32:26Z</time>
      </trkpt>
      <trkpt lat="43.6185" lon="6.56385">
        <ele>337.9</ele>
        <time>2019-09-17T14:32:28Z</time>
      </trkpt>
      <trkpt lat="43.61851" lon="6.56393">
        <ele>337.8</ele>
        <time>2019-09-17T14:32:31Z</time>
      </trkpt>
      <trkpt lat="43.6185" lon="6.56404">
        <ele>337.8</ele>
        <time>2019-09-17T14:32:33Z</time>
      </trkpt>
      <trkpt lat="43.61849" lon="6.56413">
        <ele>338.1</ele>
        <time>2019-09-17T14:32:35Z</time>
      </trkpt>
      <trkpt lat="43.61849" lon="6.56422">
        <ele>338.5</ele>
        <time>2019-09-17T14:32:38Z</time>
      </trkpt>
      <trkpt lat="43.61849" lon="6.56428">
        <ele>338.4</ele>
        <time>2019-09-17T14:32:40Z</time>
      </trkpt>
      <trkpt lat="43.61848" lon="6.56437">
        <ele>338.8</ele>
        <time>2019-09-17T14:32:43Z</time>
      </trkpt>
      <trkpt lat="43.61848" lon="6.56443">
        <ele>338.8</ele>
        <time>2019-09-17T14:32:46Z</time>
      </trkpt>
      <trkpt lat="43.61847" lon="6.56449">
        <ele>339</ele>
        <time>2019-09-17T14:32:50Z</time>
      </trkpt>
      <trkpt lat="43.61846" lon="6.56457">
        <ele>339.1</ele>
        <time>2019-09-17T14:32:54Z</time>
      </trkpt>
      <trkpt lat="43.61847" lon="6.56464">
        <ele>338.7</ele>
        <time>2019-09-17T14:32:58Z</time>
      </trkpt>
      <trkpt lat="43.61847" lon="6.56471">
        <ele>338.9</ele>
        <time>2019-09-17T14:33:03Z</time>
      </trkpt>
      <trkpt lat="43.61846" lon="6.56477">
        <ele>339.9</ele>
        <time>2019-09-17T14:33:08Z</time>
      </trkpt>
      <trkpt lat="43.61845" lon="6.56483">
        <ele>340.3</ele>
        <time>2019-09-17T14:33:11Z</time>
      </trkpt>
      <trkpt lat="43.61845" lon="6.5649">
        <ele>340.4</ele>
        <time>2019-09-17T14:33:15Z</time>
      </trkpt>
      <trkpt lat="43.61844" lon="6.56496">
        <ele>340.4</ele>
        <time>2019-09-17T14:33:19Z</time>
      </trkpt>
      <trkpt lat="43.61843" lon="6.56503">
        <ele>340.5</ele>
        <time>2019-09-17T14:33:23Z</time>
      </trkpt>
      <trkpt lat="43.61841" lon="6.56509">
        <ele>340</ele>
        <time>2019-09-17T14:33:28Z</time>
      </trkpt>
      <trkpt lat="43.61839" lon="6.56515">
        <ele>339.1</ele>
        <time>2019-09-17T14:33:33Z</time>
      </trkpt>
      <trkpt lat="43.61836" lon="6.56521">
        <ele>337</ele>
        <time>2019-09-17T14:33:35Z</time>
      </trkpt>
      <trkpt lat="43.61835" lon="6.5653">
        <ele>334.6</ele>
        <time>2019-09-17T14:33:43Z</time>
      </trkpt>
      <trkpt lat="43.61835" lon="6.56536">
        <ele>335.9</ele>
        <time>2019-09-17T14:33:48Z</time>
      </trkpt>
      <trkpt lat="43.61832" lon="6.56542">
        <ele>338.2</ele>
        <time>2019-09-17T14:33:53Z</time>
      </trkpt>
      <trkpt lat="43.61833" lon="6.56549">
        <ele>341.1</ele>
        <time>2019-09-17T14:33:58Z</time>
      </trkpt>
      <trkpt lat="43.61837" lon="6.56553">
        <ele>343</ele>
        <time>2019-09-17T14:34:06Z</time>
      </trkpt>
      <trkpt lat="43.61841" lon="6.56556">
        <ele>344.4</ele>
        <time>2019-09-17T14:34:11Z</time>
      </trkpt>
      <trkpt lat="43.61847" lon="6.56561">
        <ele>344.2</ele>
        <time>2019-09-17T14:34:13Z</time>
      </trkpt>
      <trkpt lat="43.61852" lon="6.56566">
        <ele>343.8</ele>
        <time>2019-09-17T14:34:17Z</time>
      </trkpt>
      <trkpt lat="43.61852" lon="6.56572">
        <ele>344.3</ele>
        <time>2019-09-17T14:34:22Z</time>
      </trkpt>
      <trkpt lat="43.61854" lon="6.56578">
        <ele>344.7</ele>
        <time>2019-09-17T14:34:34Z</time>
      </trkpt>
      <trkpt lat="43.61854" lon="6.56587">
        <ele>344.4</ele>
        <time>2019-09-17T14:34:37Z</time>
      </trkpt>
      <trkpt lat="43.61854" lon="6.56594">
        <ele>344.2</ele>
        <time>2019-09-17T14:34:41Z</time>
      </trkpt>
      <trkpt lat="43.61855" lon="6.56601">
        <ele>341.6</ele>
        <time>2019-09-17T14:34:44Z</time>
      </trkpt>
      <trkpt lat="43.61853" lon="6.56608">
        <ele>339.9</ele>
        <time>2019-09-17T14:34:47Z</time>
      </trkpt>
      <trkpt lat="43.61854" lon="6.56615">
        <ele>339.3</ele>
        <time>2019-09-17T14:34:51Z</time>
      </trkpt>
      <trkpt lat="43.61857" lon="6.5662">
        <ele>339.1</ele>
        <time>2019-09-17T14:34:55Z</time>
      </trkpt>
      <trkpt lat="43.61853" lon="6.56616">
        <ele>335.1</ele>
        <time>2019-09-17T14:35:15Z</time>
      </trkpt>
      <trkpt lat="43.61849" lon="6.56611">
        <ele>335.1</ele>
        <time>2019-09-17T14:35:20Z</time>
      </trkpt>
      <trkpt lat="43.61848" lon="6.56605">
        <ele>336.5</ele>
        <time>2019-09-17T14:35:29Z</time>
      </trkpt>
      <trkpt lat="43.61846" lon="6.56599">
        <ele>337.9</ele>
        <time>2019-09-17T14:35:35Z</time>
      </trkpt>
      <trkpt lat="43.61844" lon="6.56592">
        <ele>338.7</ele>
        <time>2019-09-17T14:35:40Z</time>
      </trkpt>
      <trkpt lat="43.61842" lon="6.56585">
        <ele>339.2</ele>
        <time>2019-09-17T14:35:43Z</time>
      </trkpt>
      <trkpt lat="43.6184" lon="6.5658">
        <ele>340</ele>
        <time>2019-09-17T14:35:48Z</time>
      </trkpt>
      <trkpt lat="43.61834" lon="6.56578">
        <ele>340.1</ele>
        <time>2019-09-17T14:35:58Z</time>
      </trkpt>
      <trkpt lat="43.61829" lon="6.56581">
        <ele>339.2</ele>
        <time>2019-09-17T14:36:01Z</time>
      </trkpt>
      <trkpt lat="43.61825" lon="6.56582">
        <ele>338.2</ele>
        <time>2019-09-17T14:36:08Z</time>
      </trkpt>
      <trkpt lat="43.6182" lon="6.56585">
        <ele>339.2</ele>
        <time>2019-09-17T14:36:16Z</time>
      </trkpt>
      <trkpt lat="43.61817" lon="6.5659">
        <ele>340.2</ele>
        <time>2019-09-17T14:36:22Z</time>
      </trkpt>
      <trkpt lat="43.61814" lon="6.56595">
        <ele>338.7</ele>
        <time>2019-09-17T14:36:33Z</time>
      </trkpt>
      <trkpt lat="43.6181" lon="6.566">
        <ele>339.4</ele>
        <time>2019-09-17T14:36:44Z</time>
      </trkpt>
      <trkpt lat="43.61807" lon="6.56605">
        <ele>340.8</ele>
        <time>2019-09-17T14:36:48Z</time>
      </trkpt>
      <trkpt lat="43.61805" lon="6.5661">
        <ele>342.3</ele>
        <time>2019-09-17T14:36:53Z</time>
      </trkpt>
      <trkpt lat="43.61802" lon="6.56615">
        <ele>343.4</ele>
        <time>2019-09-17T14:36:57Z</time>
      </trkpt>
      <trkpt lat="43.618" lon="6.56621">
        <ele>344.5</ele>
        <time>2019-09-17T14:37:04Z</time>
      </trkpt>
      <trkpt lat="43.61796" lon="6.56625">
        <ele>344.6</ele>
        <time>2019-09-17T14:37:08Z</time>
      </trkpt>
      <trkpt lat="43.61792" lon="6.5663">
        <ele>344.7</ele>
        <time>2019-09-17T14:37:13Z</time>
      </trkpt>
      <trkpt lat="43.61788" lon="6.56635">
        <ele>345</ele>
        <time>2019-09-17T14:37:17Z</time>
      </trkpt>
      <trkpt lat="43.61785" lon="6.56641">
        <ele>345.6</ele>
        <time>2019-09-17T14:37:21Z</time>
      </trkpt>
      <trkpt lat="43.61784" lon="6.56647">
        <ele>345.1</ele>
        <time>2019-09-17T14:37:26Z</time>
      </trkpt>
      <trkpt lat="43.61781" lon="6.56652">
        <ele>343.9</ele>
        <time>2019-09-17T14:37:31Z</time>
      </trkpt>
      <trkpt lat="43.61779" lon="6.56659">
        <ele>343.5</ele>
        <time>2019-09-17T14:37:38Z</time>
      </trkpt>
      <trkpt lat="43.61781" lon="6.56665">
        <ele>342.3</ele>
        <time>2019-09-17T14:37:42Z</time>
      </trkpt>
      <trkpt lat="43.61778" lon="6.5667">
        <ele>339.5</ele>
        <time>2019-09-17T14:37:47Z</time>
      </trkpt>
      <trkpt lat="43.61774" lon="6.56673">
        <ele>338.7</ele>
        <time>2019-09-17T14:37:49Z</time>
      </trkpt>
      <trkpt lat="43.6177" lon="6.56677">
        <ele>337.3</ele>
        <time>2019-09-17T14:37:53Z</time>
      </trkpt>
      <trkpt lat="43.61765" lon="6.56681">
        <ele>336.5</ele>
        <time>2019-09-17T14:37:57Z</time>
      </trkpt>
      <trkpt lat="43.61761" lon="6.56686">
        <ele>336.9</ele>
        <time>2019-09-17T14:38:00Z</time>
      </trkpt>
      <trkpt lat="43.61756" lon="6.56689">
        <ele>338.5</ele>
        <time>2019-09-17T14:38:05Z</time>
      </trkpt>
      <trkpt lat="43.61751" lon="6.56694">
        <ele>340.9</ele>
        <time>2019-09-17T14:38:10Z</time>
      </trkpt>
      <trkpt lat="43.61747" lon="6.56698">
        <ele>343.2</ele>
        <time>2019-09-17T14:38:21Z</time>
      </trkpt>
      <trkpt lat="43.61744" lon="6.56704">
        <ele>343.2</ele>
        <time>2019-09-17T14:38:25Z</time>
      </trkpt>
      <trkpt lat="43.61739" lon="6.56707">
        <ele>343.3</ele>
        <time>2019-09-17T14:38:29Z</time>
      </trkpt>
      <trkpt lat="43.61735" lon="6.56712">
        <ele>343.4</ele>
        <time>2019-09-17T14:38:33Z</time>
      </trkpt>
      <trkpt lat="43.61731" lon="6.56716">
        <ele>343.5</ele>
        <time>2019-09-17T14:38:36Z</time>
      </trkpt>
      <trkpt lat="43.61727" lon="6.56723">
        <ele>342.7</ele>
        <time>2019-09-17T14:38:40Z</time>
      </trkpt>
      <trkpt lat="43.61723" lon="6.56724">
        <ele>342.2</ele>
        <time>2019-09-17T14:38:43Z</time>
      </trkpt>
      <trkpt lat="43.61718" lon="6.56725">
        <ele>341.9</ele>
        <time>2019-09-17T14:38:47Z</time>
      </trkpt>
      <trkpt lat="43.61714" lon="6.56726">
        <ele>342.1</ele>
        <time>2019-09-17T14:38:55Z</time>
      </trkpt>
      <trkpt lat="43.61709" lon="6.56728">
        <ele>343</ele>
        <time>2019-09-17T14:39:03Z</time>
      </trkpt>
      <trkpt lat="43.61705" lon="6.56734">
        <ele>343</ele>
        <time>2019-09-17T14:39:06Z</time>
      </trkpt>
      <trkpt lat="43.617" lon="6.56736">
        <ele>343</ele>
        <time>2019-09-17T14:39:09Z</time>
      </trkpt>
      <trkpt lat="43.61695" lon="6.56735">
        <ele>343.1</ele>
        <time>2019-09-17T14:39:13Z</time>
      </trkpt>
      <trkpt lat="43.61691" lon="6.56736">
        <ele>342.8</ele>
        <time>2019-09-17T14:39:18Z</time>
      </trkpt>
      <trkpt lat="43.61686" lon="6.56738">
        <ele>343.7</ele>
        <time>2019-09-17T14:39:24Z</time>
      </trkpt>
      <trkpt lat="43.61681" lon="6.56737">
        <ele>344.8</ele>
        <time>2019-09-17T14:39:31Z</time>
      </trkpt>
      <trkpt lat="43.61676" lon="6.56738">
        <ele>343.6</ele>
        <time>2019-09-17T14:39:37Z</time>
      </trkpt>
      <trkpt lat="43.61671" lon="6.56739">
        <ele>340.9</ele>
        <time>2019-09-17T14:39:45Z</time>
      </trkpt>
      <trkpt lat="43.61665" lon="6.56739">
        <ele>340.2</ele>
        <time>2019-09-17T14:39:48Z</time>
      </trkpt>
      <trkpt lat="43.61659" lon="6.56739">
        <ele>338.6</ele>
        <time>2019-09-17T14:39:51Z</time>
      </trkpt>
      <trkpt lat="43.61654" lon="6.56738">
        <ele>337.6</ele>
        <time>2019-09-17T14:39:53Z</time>
      </trkpt>
      <trkpt lat="43.6165" lon="6.56739">
        <ele>338.3</ele>
        <time>2019-09-17T14:39:58Z</time>
      </trkpt>
      <trkpt lat="43.61644" lon="6.56737">
        <ele>337.3</ele>
        <time>2019-09-17T14:40:16Z</time>
      </trkpt>
      <trkpt lat="43.6164" lon="6.56735">
        <ele>337.3</ele>
        <time>2019-09-17T14:40:18Z</time>
      </trkpt>
      <trkpt lat="43.61635" lon="6.56734">
        <ele>337.6</ele>
        <time>2019-09-17T14:40:20Z</time>
      </trkpt>
      <trkpt lat="43.6163" lon="6.56732">
        <ele>338.2</ele>
        <time>2019-09-17T14:40:23Z</time>
      </trkpt>
      <trkpt lat="43.61625" lon="6.5673">
        <ele>339.1</ele>
        <time>2019-09-17T14:40:25Z</time>
      </trkpt>
      <trkpt lat="43.61619" lon="6.5673">
        <ele>340.6</ele>
        <time>2019-09-17T14:40:30Z</time>
      </trkpt>
      <trkpt lat="43.61614" lon="6.5673">
        <ele>340.7</ele>
        <time>2019-09-17T14:40:34Z</time>
      </trkpt>
      <trkpt lat="43.61609" lon="6.56728">
        <ele>341</ele>
        <time>2019-09-17T14:40:40Z</time>
      </trkpt>
      <trkpt lat="43.61603" lon="6.56726">
        <ele>341.2</ele>
        <time>2019-09-17T14:40:44Z</time>
      </trkpt>
      <trkpt lat="43.61598" lon="6.56721">
        <ele>339.7</ele>
        <time>2019-09-17T14:40:47Z</time>
      </trkpt>
      <trkpt lat="43.61594" lon="6.56718">
        <ele>339.2</ele>
        <time>2019-09-17T14:40:50Z</time>
      </trkpt>
      <trkpt lat="43.61588" lon="6.56716">
        <ele>338.5</ele>
        <time>2019-09-17T14:40:52Z</time>
      </trkpt>
      <trkpt lat="43.61583" lon="6.56715">
        <ele>338.3</ele>
        <time>2019-09-17T14:40:55Z</time>
      </trkpt>
      <trkpt lat="43.61579" lon="6.56713">
        <ele>338.2</ele>
        <time>2019-09-17T14:40:58Z</time>
      </trkpt>
      <trkpt lat="43.61576" lon="6.56708">
        <ele>339.4</ele>
        <time>2019-09-17T14:41:05Z</time>
      </trkpt>
      <trkpt lat="43.61572" lon="6.56704">
        <ele>340.7</ele>
        <time>2019-09-17T14:41:15Z</time>
      </trkpt>
      <trkpt lat="43.61568" lon="6.56699">
        <ele>341.3</ele>
        <time>2019-09-17T14:41:24Z</time>
      </trkpt>
      <trkpt lat="43.61564" lon="6.56694">
        <ele>341.5</ele>
        <time>2019-09-17T14:41:29Z</time>
      </trkpt>
      <trkpt lat="43.61561" lon="6.5669">
        <ele>341.7</ele>
        <time>2019-09-17T14:41:32Z</time>
      </trkpt>
      <trkpt lat="43.61557" lon="6.56686">
        <ele>341.8</ele>
        <time>2019-09-17T14:41:36Z</time>
      </trkpt>
      <trkpt lat="43.61553" lon="6.56681">
        <ele>342.1</ele>
        <time>2019-09-17T14:41:40Z</time>
      </trkpt>
      <trkpt lat="43.61549" lon="6.56675">
        <ele>342.6</ele>
        <time>2019-09-17T14:41:44Z</time>
      </trkpt>
      <trkpt lat="43.61545" lon="6.5667">
        <ele>343.3</ele>
        <time>2019-09-17T14:41:48Z</time>
      </trkpt>
      <trkpt lat="43.61541" lon="6.56665">
        <ele>343.6</ele>
        <time>2019-09-17T14:41:52Z</time>
      </trkpt>
      <trkpt lat="43.61538" lon="6.56659">
        <ele>343.8</ele>
        <time>2019-09-17T14:41:58Z</time>
      </trkpt>
      <trkpt lat="43.61536" lon="6.56653">
        <ele>344.2</ele>
        <time>2019-09-17T14:42:02Z</time>
      </trkpt>
      <trkpt lat="43.61534" lon="6.56646">
        <ele>345.2</ele>
        <time>2019-09-17T14:42:08Z</time>
      </trkpt>
      <trkpt lat="43.61532" lon="6.56639">
        <ele>346.1</ele>
        <time>2019-09-17T14:42:14Z</time>
      </trkpt>
      <trkpt lat="43.61531" lon="6.56632">
        <ele>346.6</ele>
        <time>2019-09-17T14:42:19Z</time>
      </trkpt>
      <trkpt lat="43.61527" lon="6.56626">
        <ele>347.1</ele>
        <time>2019-09-17T14:42:23Z</time>
      </trkpt>
      <trkpt lat="43.61526" lon="6.5662">
        <ele>347.8</ele>
        <time>2019-09-17T14:42:29Z</time>
      </trkpt>
      <trkpt lat="43.61525" lon="6.56613">
        <ele>348.4</ele>
        <time>2019-09-17T14:42:33Z</time>
      </trkpt>
      <trkpt lat="43.61523" lon="6.56606">
        <ele>349.2</ele>
        <time>2019-09-17T14:42:38Z</time>
      </trkpt>
      <trkpt lat="43.61521" lon="6.56599">
        <ele>350.1</ele>
        <time>2019-09-17T14:42:44Z</time>
      </trkpt>
      <trkpt lat="43.61519" lon="6.56593">
        <ele>350.5</ele>
        <time>2019-09-17T14:42:48Z</time>
      </trkpt>
      <trkpt lat="43.61518" lon="6.56585">
        <ele>350.9</ele>
        <time>2019-09-17T14:42:52Z</time>
      </trkpt>
      <trkpt lat="43.61517" lon="6.56578">
        <ele>351.5</ele>
        <time>2019-09-17T14:42:57Z</time>
      </trkpt>
      <trkpt lat="43.61516" lon="6.56572">
        <ele>352.1</ele>
        <time>2019-09-17T14:43:01Z</time>
      </trkpt>
      <trkpt lat="43.61514" lon="6.56565">
        <ele>353</ele>
        <time>2019-09-17T14:43:05Z</time>
      </trkpt>
      <trkpt lat="43.61514" lon="6.56558">
        <ele>354.4</ele>
        <time>2019-09-17T14:43:11Z</time>
      </trkpt>
      <trkpt lat="43.61513" lon="6.56551">
        <ele>355.7</ele>
        <time>2019-09-17T14:43:15Z</time>
      </trkpt>
      <trkpt lat="43.61512" lon="6.56545">
        <ele>356.7</ele>
        <time>2019-09-17T14:43:19Z</time>
      </trkpt>
      <trkpt lat="43.61511" lon="6.56538">
        <ele>357.4</ele>
        <time>2019-09-17T14:43:23Z</time>
      </trkpt>
      <trkpt lat="43.61509" lon="6.56531">
        <ele>358.5</ele>
        <time>2019-09-17T14:43:28Z</time>
      </trkpt>
      <trkpt lat="43.61507" lon="6.56524">
        <ele>358.9</ele>
        <time>2019-09-17T14:43:33Z</time>
      </trkpt>
      <trkpt lat="43.61505" lon="6.56518">
        <ele>359</ele>
        <time>2019-09-17T14:43:37Z</time>
      </trkpt>
      <trkpt lat="43.61503" lon="6.56512">
        <ele>358.6</ele>
        <time>2019-09-17T14:43:40Z</time>
      </trkpt>
      <trkpt lat="43.61502" lon="6.56504">
        <ele>357.5</ele>
        <time>2019-09-17T14:43:45Z</time>
      </trkpt>
      <trkpt lat="43.61499" lon="6.56498">
        <ele>357.1</ele>
        <time>2019-09-17T14:43:50Z</time>
      </trkpt>
      <trkpt lat="43.61496" lon="6.56491">
        <ele>356.8</ele>
        <time>2019-09-17T14:43:53Z</time>
      </trkpt>
      <trkpt lat="43.61495" lon="6.56485">
        <ele>355.7</ele>
        <time>2019-09-17T14:43:56Z</time>
      </trkpt>
      <trkpt lat="43.61495" lon="6.56478">
        <ele>356.4</ele>
        <time>2019-09-17T14:44:03Z</time>
      </trkpt>
      <trkpt lat="43.61493" lon="6.56471">
        <ele>357</ele>
        <time>2019-09-17T14:44:13Z</time>
      </trkpt>
      <trkpt lat="43.61492" lon="6.56465">
        <ele>355.4</ele>
        <time>2019-09-17T14:44:18Z</time>
      </trkpt>
      <trkpt lat="43.6149" lon="6.56457">
        <ele>354.2</ele>
        <time>2019-09-17T14:44:22Z</time>
      </trkpt>
      <trkpt lat="43.61489" lon="6.5645">
        <ele>352.8</ele>
        <time>2019-09-17T14:44:26Z</time>
      </trkpt>
      <trkpt lat="43.6149" lon="6.56443">
        <ele>351.3</ele>
        <time>2019-09-17T14:44:31Z</time>
      </trkpt>
      <trkpt lat="43.6149" lon="6.56437">
        <ele>352.4</ele>
        <time>2019-09-17T14:44:38Z</time>
      </trkpt>
      <trkpt lat="43.6149" lon="6.56429">
        <ele>354.1</ele>
        <time>2019-09-17T14:44:54Z</time>
      </trkpt>
      <trkpt lat="43.61487" lon="6.56423">
        <ele>354.6</ele>
        <time>2019-09-17T14:44:57Z</time>
      </trkpt>
      <trkpt lat="43.61486" lon="6.56417">
        <ele>355.3</ele>
        <time>2019-09-17T14:45:00Z</time>
      </trkpt>
      <trkpt lat="43.61484" lon="6.56409">
        <ele>356.1</ele>
        <time>2019-09-17T14:45:04Z</time>
      </trkpt>
      <trkpt lat="43.61482" lon="6.56403">
        <ele>356.1</ele>
        <time>2019-09-17T14:45:07Z</time>
      </trkpt>
      <trkpt lat="43.61481" lon="6.56396">
        <ele>355.3</ele>
        <time>2019-09-17T14:45:10Z</time>
      </trkpt>
      <trkpt lat="43.61479" lon="6.56389">
        <ele>355.2</ele>
        <time>2019-09-17T14:45:15Z</time>
      </trkpt>
      <trkpt lat="43.61477" lon="6.56383">
        <ele>355.6</ele>
        <time>2019-09-17T14:45:24Z</time>
      </trkpt>
      <trkpt lat="43.61474" lon="6.56376">
        <ele>355.4</ele>
        <time>2019-09-17T14:45:29Z</time>
      </trkpt>
      <trkpt lat="43.61471" lon="6.5637">
        <ele>354.5</ele>
        <time>2019-09-17T14:45:33Z</time>
      </trkpt>
      <trkpt lat="43.6147" lon="6.56364">
        <ele>354.5</ele>
        <time>2019-09-17T14:45:37Z</time>
      </trkpt>
      <trkpt lat="43.6147" lon="6.56357">
        <ele>354.6</ele>
        <time>2019-09-17T14:45:41Z</time>
      </trkpt>
      <trkpt lat="43.61467" lon="6.56352">
        <ele>355</ele>
        <time>2019-09-17T14:45:46Z</time>
      </trkpt>
      <trkpt lat="43.61464" lon="6.56347">
        <ele>355.5</ele>
        <time>2019-09-17T14:45:55Z</time>
      </trkpt>
      <trkpt lat="43.61462" lon="6.56341">
        <ele>355.5</ele>
        <time>2019-09-17T14:45:58Z</time>
      </trkpt>
      <trkpt lat="43.6146" lon="6.56335">
        <ele>355.5</ele>
        <time>2019-09-17T14:46:01Z</time>
      </trkpt>
      <trkpt lat="43.61457" lon="6.5633">
        <ele>355.7</ele>
        <time>2019-09-17T14:46:05Z</time>
      </trkpt>
      <trkpt lat="43.61454" lon="6.56325">
        <ele>355.7</ele>
        <time>2019-09-17T14:46:10Z</time>
      </trkpt>
      <trkpt lat="43.61449" lon="6.56323">
        <ele>354.1</ele>
        <time>2019-09-17T14:46:14Z</time>
      </trkpt>
      <trkpt lat="43.61445" lon="6.56324">
        <ele>352</ele>
        <time>2019-09-17T14:46:19Z</time>
      </trkpt>
      <trkpt lat="43.61445" lon="6.56317">
        <ele>352.3</ele>
        <time>2019-09-17T14:46:33Z</time>
      </trkpt>
      <trkpt lat="43.61443" lon="6.5631">
        <ele>353.2</ele>
        <time>2019-09-17T14:46:38Z</time>
      </trkpt>
      <trkpt lat="43.61441" lon="6.56304">
        <ele>353.8</ele>
        <time>2019-09-17T14:46:46Z</time>
      </trkpt>
      <trkpt lat="43.6144" lon="6.56298">
        <ele>354.2</ele>
        <time>2019-09-17T14:46:50Z</time>
      </trkpt>
      <trkpt lat="43.61436" lon="6.56292">
        <ele>354.7</ele>
        <time>2019-09-17T14:46:55Z</time>
      </trkpt>
      <trkpt lat="43.61433" lon="6.56287">
        <ele>355.5</ele>
        <time>2019-09-17T14:46:59Z</time>
      </trkpt>
      <trkpt lat="43.6143" lon="6.56281">
        <ele>356.2</ele>
        <time>2019-09-17T14:47:10Z</time>
      </trkpt>
      <trkpt lat="43.61426" lon="6.56275">
        <ele>356.6</ele>
        <time>2019-09-17T14:47:18Z</time>
      </trkpt>
      <trkpt lat="43.61424" lon="6.56269">
        <ele>357</ele>
        <time>2019-09-17T14:47:21Z</time>
      </trkpt>
      <trkpt lat="43.61421" lon="6.56262">
        <ele>355.6</ele>
        <time>2019-09-17T14:47:25Z</time>
      </trkpt>
      <trkpt lat="43.61416" lon="6.56257">
        <ele>354.9</ele>
        <time>2019-09-17T14:47:28Z</time>
      </trkpt>
      <trkpt lat="43.61412" lon="6.56252">
        <ele>354.4</ele>
        <time>2019-09-17T14:47:31Z</time>
      </trkpt>
      <trkpt lat="43.61409" lon="6.56248">
        <ele>354.2</ele>
        <time>2019-09-17T14:47:34Z</time>
      </trkpt>
      <trkpt lat="43.61405" lon="6.56244">
        <ele>354.6</ele>
        <time>2019-09-17T14:47:38Z</time>
      </trkpt>
      <trkpt lat="43.61402" lon="6.56239">
        <ele>353.8</ele>
        <time>2019-09-17T14:47:41Z</time>
      </trkpt>
      <trkpt lat="43.61398" lon="6.56234">
        <ele>353.1</ele>
        <time>2019-09-17T14:47:44Z</time>
      </trkpt>
      <trkpt lat="43.61396" lon="6.56228">
        <ele>350.9</ele>
        <time>2019-09-17T14:47:51Z</time>
      </trkpt>
      <trkpt lat="43.61393" lon="6.56223">
        <ele>350.3</ele>
        <time>2019-09-17T14:47:56Z</time>
      </trkpt>
      <trkpt lat="43.61389" lon="6.56219">
        <ele>350.3</ele>
        <time>2019-09-17T14:47:59Z</time>
      </trkpt>
      <trkpt lat="43.61385" lon="6.56214">
        <ele>351</ele>
        <time>2019-09-17T14:48:04Z</time>
      </trkpt>
      <trkpt lat="43.61382" lon="6.56209">
        <ele>352.3</ele>
        <time>2019-09-17T14:48:08Z</time>
      </trkpt>
      <trkpt lat="43.6138" lon="6.56202">
        <ele>354.3</ele>
        <time>2019-09-17T14:48:13Z</time>
      </trkpt>
      <trkpt lat="43.61377" lon="6.56196">
        <ele>355.7</ele>
        <time>2019-09-17T14:48:18Z</time>
      </trkpt>
      <trkpt lat="43.61373" lon="6.56192">
        <ele>354</ele>
        <time>2019-09-17T14:48:24Z</time>
      </trkpt>
      <trkpt lat="43.61371" lon="6.56187">
        <ele>353.4</ele>
        <time>2019-09-17T14:48:28Z</time>
      </trkpt>
      <trkpt lat="43.61367" lon="6.56181">
        <ele>353.6</ele>
        <time>2019-09-17T14:48:32Z</time>
      </trkpt>
      <trkpt lat="43.61362" lon="6.56177">
        <ele>353.1</ele>
        <time>2019-09-17T14:48:36Z</time>
      </trkpt>
      <trkpt lat="43.61361" lon="6.56171">
        <ele>353.3</ele>
        <time>2019-09-17T14:48:40Z</time>
      </trkpt>
      <trkpt lat="43.6136" lon="6.56164">
        <ele>354.7</ele>
        <time>2019-09-17T14:48:46Z</time>
      </trkpt>
      <trkpt lat="43.61358" lon="6.56158">
        <ele>356.1</ele>
        <time>2019-09-17T14:48:52Z</time>
      </trkpt>
      <trkpt lat="43.61355" lon="6.56154">
        <ele>356.4</ele>
        <time>2019-09-17T14:48:57Z</time>
      </trkpt>
      <trkpt lat="43.61351" lon="6.56149">
        <ele>356.5</ele>
        <time>2019-09-17T14:49:01Z</time>
      </trkpt>
      <trkpt lat="43.61347" lon="6.56145">
        <ele>356.8</ele>
        <time>2019-09-17T14:49:05Z</time>
      </trkpt>
      <trkpt lat="43.61343" lon="6.56142">
        <ele>357.1</ele>
        <time>2019-09-17T14:49:08Z</time>
      </trkpt>
      <trkpt lat="43.61339" lon="6.56137">
        <ele>358</ele>
        <time>2019-09-17T14:49:12Z</time>
      </trkpt>
      <trkpt lat="43.61335" lon="6.56132">
        <ele>357.3</ele>
        <time>2019-09-17T14:49:23Z</time>
      </trkpt>
      <trkpt lat="43.61332" lon="6.56127">
        <ele>357.5</ele>
        <time>2019-09-17T14:49:26Z</time>
      </trkpt>
      <trkpt lat="43.61329" lon="6.5612">
        <ele>356.6</ele>
        <time>2019-09-17T14:49:29Z</time>
      </trkpt>
      <trkpt lat="43.61326" lon="6.56114">
        <ele>356.5</ele>
        <time>2019-09-17T14:49:32Z</time>
      </trkpt>
      <trkpt lat="43.61322" lon="6.56112">
        <ele>355.9</ele>
        <time>2019-09-17T14:49:36Z</time>
      </trkpt>
      <trkpt lat="43.61317" lon="6.56111">
        <ele>356.5</ele>
        <time>2019-09-17T14:49:41Z</time>
      </trkpt>
      <trkpt lat="43.61312" lon="6.56108">
        <ele>358.4</ele>
        <time>2019-09-17T14:49:50Z</time>
      </trkpt>
      <trkpt lat="43.61307" lon="6.56109">
        <ele>357.9</ele>
        <time>2019-09-17T14:49:53Z</time>
      </trkpt>
      <trkpt lat="43.61303" lon="6.56107">
        <ele>357.7</ele>
        <time>2019-09-17T14:49:57Z</time>
      </trkpt>
      <trkpt lat="43.61298" lon="6.56103">
        <ele>357.6</ele>
        <time>2019-09-17T14:50:01Z</time>
      </trkpt>
      <trkpt lat="43.61294" lon="6.56099">
        <ele>356.9</ele>
        <time>2019-09-17T14:50:03Z</time>
      </trkpt>
      <trkpt lat="43.61293" lon="6.56093">
        <ele>354.9</ele>
        <time>2019-09-17T14:50:08Z</time>
      </trkpt>
      <trkpt lat="43.61288" lon="6.56088">
        <ele>354.9</ele>
        <time>2019-09-17T14:50:14Z</time>
      </trkpt>
      <trkpt lat="43.61282" lon="6.56086">
        <ele>355.5</ele>
        <time>2019-09-17T14:50:17Z</time>
      </trkpt>
      <trkpt lat="43.61277" lon="6.56085">
        <ele>356.1</ele>
        <time>2019-09-17T14:50:20Z</time>
      </trkpt>
      <trkpt lat="43.61273" lon="6.56081">
        <ele>357.1</ele>
        <time>2019-09-17T14:50:24Z</time>
      </trkpt>
      <trkpt lat="43.61267" lon="6.56078">
        <ele>358.3</ele>
        <time>2019-09-17T14:50:29Z</time>
      </trkpt>
      <trkpt lat="43.61263" lon="6.56074">
        <ele>356.9</ele>
        <time>2019-09-17T14:50:34Z</time>
      </trkpt>
      <trkpt lat="43.61259" lon="6.56072">
        <ele>355.5</ele>
        <time>2019-09-17T14:50:39Z</time>
      </trkpt>
      <trkpt lat="43.61254" lon="6.5607">
        <ele>354.5</ele>
        <time>2019-09-17T14:50:43Z</time>
      </trkpt>
      <trkpt lat="43.6125" lon="6.56066">
        <ele>354.8</ele>
        <time>2019-09-17T14:50:47Z</time>
      </trkpt>
      <trkpt lat="43.61246" lon="6.56062">
        <ele>355.9</ele>
        <time>2019-09-17T14:50:53Z</time>
      </trkpt>
      <trkpt lat="43.61241" lon="6.56059">
        <ele>357.1</ele>
        <time>2019-09-17T14:50:59Z</time>
      </trkpt>
      <trkpt lat="43.61237" lon="6.56054">
        <ele>358.6</ele>
        <time>2019-09-17T14:51:05Z</time>
      </trkpt>
      <trkpt lat="43.61233" lon="6.5605">
        <ele>359.5</ele>
        <time>2019-09-17T14:51:09Z</time>
      </trkpt>
      <trkpt lat="43.6123" lon="6.56046">
        <ele>359.4</ele>
        <time>2019-09-17T14:51:14Z</time>
      </trkpt>
      <trkpt lat="43.61227" lon="6.56041">
        <ele>357.7</ele>
        <time>2019-09-17T14:51:18Z</time>
      </trkpt>
      <trkpt lat="43.61222" lon="6.56038">
        <ele>357.5</ele>
        <time>2019-09-17T14:51:22Z</time>
      </trkpt>
      <trkpt lat="43.61217" lon="6.56037">
        <ele>357.4</ele>
        <time>2019-09-17T14:51:26Z</time>
      </trkpt>
      <trkpt lat="43.61213" lon="6.56034">
        <ele>357</ele>
        <time>2019-09-17T14:51:30Z</time>
      </trkpt>
      <trkpt lat="43.6121" lon="6.56028">
        <ele>357.9</ele>
        <time>2019-09-17T14:51:34Z</time>
      </trkpt>
      <trkpt lat="43.61206" lon="6.56025">
        <ele>360.1</ele>
        <time>2019-09-17T14:51:40Z</time>
      </trkpt>
      <trkpt lat="43.61201" lon="6.56023">
        <ele>361.9</ele>
        <time>2019-09-17T14:51:47Z</time>
      </trkpt>
      <trkpt lat="43.61196" lon="6.56021">
        <ele>362.3</ele>
        <time>2019-09-17T14:51:52Z</time>
      </trkpt>
      <trkpt lat="43.61191" lon="6.56019">
        <ele>362.3</ele>
        <time>2019-09-17T14:51:57Z</time>
      </trkpt>
      <trkpt lat="43.61186" lon="6.56017">
        <ele>362.6</ele>
        <time>2019-09-17T14:52:01Z</time>
      </trkpt>
      <trkpt lat="43.6118" lon="6.56014">
        <ele>363.4</ele>
        <time>2019-09-17T14:52:06Z</time>
      </trkpt>
      <trkpt lat="43.61175" lon="6.56012">
        <ele>364.1</ele>
        <time>2019-09-17T14:52:10Z</time>
      </trkpt>
      <trkpt lat="43.61171" lon="6.5601">
        <ele>365.1</ele>
        <time>2019-09-17T14:52:16Z</time>
      </trkpt>
      <trkpt lat="43.61166" lon="6.56006">
        <ele>363.6</ele>
        <time>2019-09-17T14:52:23Z</time>
      </trkpt>
      <trkpt lat="43.61162" lon="6.56005">
        <ele>363.7</ele>
        <time>2019-09-17T14:52:26Z</time>
      </trkpt>
      <trkpt lat="43.61157" lon="6.56005">
        <ele>363.9</ele>
        <time>2019-09-17T14:52:30Z</time>
      </trkpt>
      <trkpt lat="43.61151" lon="6.56004">
        <ele>364.5</ele>
        <time>2019-09-17T14:52:33Z</time>
      </trkpt>
      <trkpt lat="43.61147" lon="6.56">
        <ele>365.9</ele>
        <time>2019-09-17T14:52:42Z</time>
      </trkpt>
      <trkpt lat="43.61142" lon="6.55997">
        <ele>367</ele>
        <time>2019-09-17T14:52:47Z</time>
      </trkpt>
      <trkpt lat="43.61137" lon="6.55996">
        <ele>367.8</ele>
        <time>2019-09-17T14:52:53Z</time>
      </trkpt>
      <trkpt lat="43.61133" lon="6.55999">
        <ele>366.7</ele>
        <time>2019-09-17T14:52:56Z</time>
      </trkpt>
      <trkpt lat="43.61128" lon="6.56">
        <ele>366.2</ele>
        <time>2019-09-17T14:52:58Z</time>
      </trkpt>
      <trkpt lat="43.61123" lon="6.55999">
        <ele>365.4</ele>
        <time>2019-09-17T14:53:02Z</time>
      </trkpt>
      <trkpt lat="43.6112" lon="6.55994">
        <ele>365.3</ele>
        <time>2019-09-17T14:53:06Z</time>
      </trkpt>
      <trkpt lat="43.61115" lon="6.55992">
        <ele>365.6</ele>
        <time>2019-09-17T14:53:13Z</time>
      </trkpt>
      <trkpt lat="43.6111" lon="6.5599">
        <ele>365.5</ele>
        <time>2019-09-17T14:53:17Z</time>
      </trkpt>
      <trkpt lat="43.61104" lon="6.55987">
        <ele>365.8</ele>
        <time>2019-09-17T14:53:21Z</time>
      </trkpt>
      <trkpt lat="43.611" lon="6.55984">
        <ele>366.4</ele>
        <time>2019-09-17T14:53:26Z</time>
      </trkpt>
      <trkpt lat="43.61089" lon="6.5598">
        <ele>372.6</ele>
        <time>2019-09-17T14:53:32Z</time>
      </trkpt>
      <trkpt lat="43.61084" lon="6.55978">
        <ele>371.9</ele>
        <time>2019-09-17T14:53:36Z</time>
      </trkpt>
      <trkpt lat="43.61079" lon="6.55976">
        <ele>370.1</ele>
        <time>2019-09-17T14:53:39Z</time>
      </trkpt>
      <trkpt lat="43.61075" lon="6.55975">
        <ele>371.2</ele>
        <time>2019-09-17T14:53:45Z</time>
      </trkpt>
      <trkpt lat="43.6107" lon="6.55975">
        <ele>371.5</ele>
        <time>2019-09-17T14:53:53Z</time>
      </trkpt>
      <trkpt lat="43.61065" lon="6.55973">
        <ele>370.9</ele>
        <time>2019-09-17T14:54:09Z</time>
      </trkpt>
      <trkpt lat="43.6106" lon="6.55969">
        <ele>370.2</ele>
        <time>2019-09-17T14:54:12Z</time>
      </trkpt>
      <trkpt lat="43.61055" lon="6.55965">
        <ele>370</ele>
        <time>2019-09-17T14:54:14Z</time>
      </trkpt>
      <trkpt lat="43.6105" lon="6.55963">
        <ele>369.8</ele>
        <time>2019-09-17T14:54:18Z</time>
      </trkpt>
      <trkpt lat="43.61045" lon="6.55962">
        <ele>369.7</ele>
        <time>2019-09-17T14:54:21Z</time>
      </trkpt>
      <trkpt lat="43.6104" lon="6.55962">
        <ele>369.9</ele>
        <time>2019-09-17T14:54:26Z</time>
      </trkpt>
      <trkpt lat="43.61035" lon="6.55962">
        <ele>370.2</ele>
        <time>2019-09-17T14:54:32Z</time>
      </trkpt>
      <trkpt lat="43.61029" lon="6.55961">
        <ele>369.6</ele>
        <time>2019-09-17T14:54:37Z</time>
      </trkpt>
      <trkpt lat="43.61023" lon="6.55961">
        <ele>369.5</ele>
        <time>2019-09-17T14:54:39Z</time>
      </trkpt>
      <trkpt lat="43.61018" lon="6.55961">
        <ele>369.4</ele>
        <time>2019-09-17T14:54:42Z</time>
      </trkpt>
      <trkpt lat="43.61013" lon="6.55963">
        <ele>368.8</ele>
        <time>2019-09-17T14:54:46Z</time>
      </trkpt>
      <trkpt lat="43.61008" lon="6.55964">
        <ele>368.9</ele>
        <time>2019-09-17T14:54:50Z</time>
      </trkpt>
      <trkpt lat="43.61003" lon="6.55964">
        <ele>369.6</ele>
        <time>2019-09-17T14:54:57Z</time>
      </trkpt>
      <trkpt lat="43.60998" lon="6.55964">
        <ele>369.9</ele>
        <time>2019-09-17T14:55:16Z</time>
      </trkpt>
      <trkpt lat="43.60991" lon="6.55964">
        <ele>370</ele>
        <time>2019-09-17T14:55:19Z</time>
      </trkpt>
      <trkpt lat="43.60987" lon="6.55967">
        <ele>369.6</ele>
        <time>2019-09-17T14:55:22Z</time>
      </trkpt>
      <trkpt lat="43.60982" lon="6.55971">
        <ele>369.3</ele>
        <time>2019-09-17T14:55:25Z</time>
      </trkpt>
      <trkpt lat="43.60977" lon="6.55973">
        <ele>369.7</ele>
        <time>2019-09-17T14:55:28Z</time>
      </trkpt>
      <trkpt lat="43.60972" lon="6.55976">
        <ele>369.6</ele>
        <time>2019-09-17T14:55:32Z</time>
      </trkpt>
      <trkpt lat="43.60968" lon="6.55978">
        <ele>369.8</ele>
        <time>2019-09-17T14:55:35Z</time>
      </trkpt>
      <trkpt lat="43.60963" lon="6.55981">
        <ele>370.3</ele>
        <time>2019-09-17T14:55:38Z</time>
      </trkpt>
      <trkpt lat="43.60958" lon="6.55984">
        <ele>370.7</ele>
        <time>2019-09-17T14:55:45Z</time>
      </trkpt>
      <trkpt lat="43.60953" lon="6.55988">
        <ele>370.1</ele>
        <time>2019-09-17T14:55:48Z</time>
      </trkpt>
      <trkpt lat="43.6095" lon="6.55993">
        <ele>368.4</ele>
        <time>2019-09-17T14:55:51Z</time>
      </trkpt>
      <trkpt lat="43.60948" lon="6.55999">
        <ele>366.7</ele>
        <time>2019-09-17T14:55:55Z</time>
      </trkpt>
      <trkpt lat="43.60943" lon="6.56001">
        <ele>367.3</ele>
        <time>2019-09-17T14:56:00Z</time>
      </trkpt>
      <trkpt lat="43.60938" lon="6.56004">
        <ele>367.7</ele>
        <time>2019-09-17T14:56:03Z</time>
      </trkpt>
      <trkpt lat="43.60933" lon="6.56006">
        <ele>369.1</ele>
        <time>2019-09-17T14:56:08Z</time>
      </trkpt>
      <trkpt lat="43.60929" lon="6.56009">
        <ele>372.6</ele>
        <time>2019-09-17T14:56:18Z</time>
      </trkpt>
      <trkpt lat="43.60924" lon="6.56012">
        <ele>373.4</ele>
        <time>2019-09-17T14:56:23Z</time>
      </trkpt>
      <trkpt lat="43.60919" lon="6.56013">
        <ele>372</ele>
        <time>2019-09-17T14:56:28Z</time>
      </trkpt>
      <trkpt lat="43.60915" lon="6.56016">
        <ele>371.1</ele>
        <time>2019-09-17T14:56:31Z</time>
      </trkpt>
      <trkpt lat="43.6091" lon="6.5602">
        <ele>370.9</ele>
        <time>2019-09-17T14:56:34Z</time>
      </trkpt>
      <trkpt lat="43.60906" lon="6.56023">
        <ele>370.8</ele>
        <time>2019-09-17T14:56:36Z</time>
      </trkpt>
      <trkpt lat="43.60901" lon="6.56027">
        <ele>370.6</ele>
        <time>2019-09-17T14:56:40Z</time>
      </trkpt>
      <trkpt lat="43.60897" lon="6.56031">
        <ele>371.2</ele>
        <time>2019-09-17T14:56:45Z</time>
      </trkpt>
      <trkpt lat="43.60893" lon="6.56036">
        <ele>373.1</ele>
        <time>2019-09-17T14:56:52Z</time>
      </trkpt>
      <trkpt lat="43.6089" lon="6.56041">
        <ele>374.3</ele>
        <time>2019-09-17T14:56:55Z</time>
      </trkpt>
      <trkpt lat="43.60886" lon="6.56047">
        <ele>374.7</ele>
        <time>2019-09-17T14:57:01Z</time>
      </trkpt>
      <trkpt lat="43.60883" lon="6.56051">
        <ele>374.9</ele>
        <time>2019-09-17T14:57:04Z</time>
      </trkpt>
      <trkpt lat="43.60879" lon="6.56054">
        <ele>374.9</ele>
        <time>2019-09-17T14:57:08Z</time>
      </trkpt>
      <trkpt lat="43.60874" lon="6.56057">
        <ele>375.3</ele>
        <time>2019-09-17T14:57:13Z</time>
      </trkpt>
      <trkpt lat="43.6087" lon="6.56061">
        <ele>376.4</ele>
        <time>2019-09-17T14:57:25Z</time>
      </trkpt>
      <trkpt lat="43.60866" lon="6.56064">
        <ele>376.7</ele>
        <time>2019-09-17T14:57:30Z</time>
      </trkpt>
      <trkpt lat="43.6086" lon="6.56068">
        <ele>377</ele>
        <time>2019-09-17T14:57:33Z</time>
      </trkpt>
      <trkpt lat="43.60856" lon="6.56071">
        <ele>377.2</ele>
        <time>2019-09-17T14:57:36Z</time>
      </trkpt>
      <trkpt lat="43.60852" lon="6.56075">
        <ele>376.9</ele>
        <time>2019-09-17T14:57:38Z</time>
      </trkpt>
      <trkpt lat="43.60847" lon="6.56079">
        <ele>377.1</ele>
        <time>2019-09-17T14:57:41Z</time>
      </trkpt>
      <trkpt lat="43.60842" lon="6.56081">
        <ele>377.4</ele>
        <time>2019-09-17T14:57:46Z</time>
      </trkpt>
      <trkpt lat="43.60838" lon="6.56083">
        <ele>376.8</ele>
        <time>2019-09-17T14:57:57Z</time>
      </trkpt>
      <trkpt lat="43.60832" lon="6.56086">
        <ele>376.8</ele>
        <time>2019-09-17T14:58:02Z</time>
      </trkpt>
      <trkpt lat="43.60828" lon="6.56089">
        <ele>376.9</ele>
        <time>2019-09-17T14:58:09Z</time>
      </trkpt>
      <trkpt lat="43.60823" lon="6.56093">
        <ele>376.9</ele>
        <time>2019-09-17T14:58:12Z</time>
      </trkpt>
      <trkpt lat="43.60819" lon="6.56095">
        <ele>377.3</ele>
        <time>2019-09-17T14:58:15Z</time>
      </trkpt>
      <trkpt lat="43.60813" lon="6.56099">
        <ele>377.9</ele>
        <time>2019-09-17T14:58:20Z</time>
      </trkpt>
      <trkpt lat="43.60809" lon="6.56101">
        <ele>378.3</ele>
        <time>2019-09-17T14:58:22Z</time>
      </trkpt>
      <trkpt lat="43.60804" lon="6.56104">
        <ele>379.1</ele>
        <time>2019-09-17T14:58:44Z</time>
      </trkpt>
      <trkpt lat="43.608" lon="6.56109">
        <ele>378.5</ele>
        <time>2019-09-17T14:58:48Z</time>
      </trkpt>
      <trkpt lat="43.60795" lon="6.56112">
        <ele>378</ele>
        <time>2019-09-17T14:58:51Z</time>
      </trkpt>
      <trkpt lat="43.60789" lon="6.56117">
        <ele>377.6</ele>
        <time>2019-09-17T14:58:53Z</time>
      </trkpt>
      <trkpt lat="43.60784" lon="6.56122">
        <ele>376.5</ele>
        <time>2019-09-17T14:58:57Z</time>
      </trkpt>
      <trkpt lat="43.60779" lon="6.56125">
        <ele>376.8</ele>
        <time>2019-09-17T14:58:58Z</time>
      </trkpt>
      <trkpt lat="43.60775" lon="6.56128">
        <ele>377.1</ele>
        <time>2019-09-17T14:59:01Z</time>
      </trkpt>
      <trkpt lat="43.6077" lon="6.56132">
        <ele>377.7</ele>
        <time>2019-09-17T14:59:05Z</time>
      </trkpt>
      <trkpt lat="43.60766" lon="6.56136">
        <ele>377.9</ele>
        <time>2019-09-17T14:59:09Z</time>
      </trkpt>
      <trkpt lat="43.60761" lon="6.5614">
        <ele>378.4</ele>
        <time>2019-09-17T14:59:18Z</time>
      </trkpt>
      <trkpt lat="43.60756" lon="6.56145">
        <ele>378.1</ele>
        <time>2019-09-17T14:59:21Z</time>
      </trkpt>
      <trkpt lat="43.60752" lon="6.5615">
        <ele>377.7</ele>
        <time>2019-09-17T14:59:24Z</time>
      </trkpt>
      <trkpt lat="43.6075" lon="6.56156">
        <ele>376.3</ele>
        <time>2019-09-17T14:59:28Z</time>
      </trkpt>
      <trkpt lat="43.60747" lon="6.56163">
        <ele>375.4</ele>
        <time>2019-09-17T14:59:32Z</time>
      </trkpt>
      <trkpt lat="43.60742" lon="6.56169">
        <ele>373.8</ele>
        <time>2019-09-17T14:59:36Z</time>
      </trkpt>
      <trkpt lat="43.60738" lon="6.56172">
        <ele>373.1</ele>
        <time>2019-09-17T14:59:39Z</time>
      </trkpt>
      <trkpt lat="43.60733" lon="6.56175">
        <ele>373.7</ele>
        <time>2019-09-17T14:59:45Z</time>
      </trkpt>
      <trkpt lat="43.60729" lon="6.56179">
        <ele>374.9</ele>
        <time>2019-09-17T14:59:50Z</time>
      </trkpt>
      <trkpt lat="43.60724" lon="6.56182">
        <ele>376.6</ele>
        <time>2019-09-17T14:59:54Z</time>
      </trkpt>
      <trkpt lat="43.6072" lon="6.56181">
        <ele>376.7</ele>
        <time>2019-09-17T14:59:59Z</time>
      </trkpt>
      <trkpt lat="43.60716" lon="6.56186">
        <ele>376.9</ele>
        <time>2019-09-17T15:00:04Z</time>
      </trkpt>
      <trkpt lat="43.60711" lon="6.56193">
        <ele>379.9</ele>
        <time>2019-09-17T15:00:10Z</time>
      </trkpt>
      <trkpt lat="43.60706" lon="6.56196">
        <ele>383.4</ele>
        <time>2019-09-17T15:00:14Z</time>
      </trkpt>
      <trkpt lat="43.60702" lon="6.562">
        <ele>387.2</ele>
        <time>2019-09-17T15:00:23Z</time>
      </trkpt>
      <trkpt lat="43.60697" lon="6.56204">
        <ele>385.6</ele>
        <time>2019-09-17T15:00:31Z</time>
      </trkpt>
      <trkpt lat="43.60692" lon="6.56205">
        <ele>383</ele>
        <time>2019-09-17T15:00:36Z</time>
      </trkpt>
      <trkpt lat="43.60688" lon="6.56208">
        <ele>382.7</ele>
        <time>2019-09-17T15:00:41Z</time>
      </trkpt>
      <trkpt lat="43.60683" lon="6.56211">
        <ele>382.8</ele>
        <time>2019-09-17T15:00:45Z</time>
      </trkpt>
      <trkpt lat="43.60679" lon="6.56215">
        <ele>381.4</ele>
        <time>2019-09-17T15:00:50Z</time>
      </trkpt>
      <trkpt lat="43.60674" lon="6.56216">
        <ele>381.5</ele>
        <time>2019-09-17T15:00:55Z</time>
      </trkpt>
      <trkpt lat="43.6067" lon="6.56215">
        <ele>382.4</ele>
        <time>2019-09-17T15:01:03Z</time>
      </trkpt>
      <trkpt lat="43.60664" lon="6.56213">
        <ele>383.1</ele>
        <time>2019-09-17T15:01:08Z</time>
      </trkpt>
      <trkpt lat="43.60659" lon="6.56213">
        <ele>383.5</ele>
        <time>2019-09-17T15:01:13Z</time>
      </trkpt>
      <trkpt lat="43.60654" lon="6.56212">
        <ele>383.7</ele>
        <time>2019-09-17T15:01:15Z</time>
      </trkpt>
      <trkpt lat="43.60649" lon="6.56212">
        <ele>384.3</ele>
        <time>2019-09-17T15:01:18Z</time>
      </trkpt>
      <trkpt lat="43.60644" lon="6.56212">
        <ele>385.3</ele>
        <time>2019-09-17T15:01:25Z</time>
      </trkpt>
      <trkpt lat="43.60639" lon="6.56214">
        <ele>385.9</ele>
        <time>2019-09-17T15:01:29Z</time>
      </trkpt>
      <trkpt lat="43.60634" lon="6.56216">
        <ele>386.6</ele>
        <time>2019-09-17T15:01:41Z</time>
      </trkpt>
      <trkpt lat="43.60629" lon="6.56217">
        <ele>386</ele>
        <time>2019-09-17T15:01:44Z</time>
      </trkpt>
      <trkpt lat="43.60623" lon="6.56218">
        <ele>385.9</ele>
        <time>2019-09-17T15:01:47Z</time>
      </trkpt>
      <trkpt lat="43.60617" lon="6.5622">
        <ele>385.6</ele>
        <time>2019-09-17T15:01:54Z</time>
      </trkpt>
      <trkpt lat="43.60613" lon="6.56222">
        <ele>385.5</ele>
        <time>2019-09-17T15:01:57Z</time>
      </trkpt>
      <trkpt lat="43.60609" lon="6.56224">
        <ele>385.5</ele>
        <time>2019-09-17T15:02:01Z</time>
      </trkpt>
      <trkpt lat="43.60604" lon="6.56226">
        <ele>385.4</ele>
        <time>2019-09-17T15:02:11Z</time>
      </trkpt>
      <trkpt lat="43.60599" lon="6.56229">
        <ele>385.4</ele>
        <time>2019-09-17T15:02:14Z</time>
      </trkpt>
      <trkpt lat="43.60594" lon="6.56231">
        <ele>385.1</ele>
        <time>2019-09-17T15:02:19Z</time>
      </trkpt>
      <trkpt lat="43.6059" lon="6.56234">
        <ele>385</ele>
        <time>2019-09-17T15:02:22Z</time>
      </trkpt>
      <trkpt lat="43.60585" lon="6.56236">
        <ele>385</ele>
        <time>2019-09-17T15:02:26Z</time>
      </trkpt>
      <trkpt lat="43.60581" lon="6.56239">
        <ele>385.5</ele>
        <time>2019-09-17T15:02:31Z</time>
      </trkpt>
      <trkpt lat="43.60576" lon="6.56244">
        <ele>385.7</ele>
        <time>2019-09-17T15:02:35Z</time>
      </trkpt>
      <trkpt lat="43.60571" lon="6.56247">
        <ele>385.2</ele>
        <time>2019-09-17T15:02:40Z</time>
      </trkpt>
      <trkpt lat="43.60566" lon="6.56248">
        <ele>383.2</ele>
        <time>2019-09-17T15:02:45Z</time>
      </trkpt>
      <trkpt lat="43.60563" lon="6.56253">
        <ele>381.4</ele>
        <time>2019-09-17T15:02:49Z</time>
      </trkpt>
      <trkpt lat="43.60561" lon="6.56259">
        <ele>380.3</ele>
        <time>2019-09-17T15:02:54Z</time>
      </trkpt>
      <trkpt lat="43.60556" lon="6.56264">
        <ele>378.5</ele>
        <time>2019-09-17T15:03:04Z</time>
      </trkpt>
      <trkpt lat="43.60551" lon="6.56268">
        <ele>378.1</ele>
        <time>2019-09-17T15:03:08Z</time>
      </trkpt>
      <trkpt lat="43.60548" lon="6.56272">
        <ele>378.9</ele>
        <time>2019-09-17T15:03:13Z</time>
      </trkpt>
      <trkpt lat="43.60543" lon="6.56277">
        <ele>379.3</ele>
        <time>2019-09-17T15:03:17Z</time>
      </trkpt>
      <trkpt lat="43.60539" lon="6.56282">
        <ele>379.3</ele>
        <time>2019-09-17T15:03:20Z</time>
      </trkpt>
      <trkpt lat="43.60535" lon="6.56286">
        <ele>380.5</ele>
        <time>2019-09-17T15:03:24Z</time>
      </trkpt>
      <trkpt lat="43.60531" lon="6.5629">
        <ele>383</ele>
        <time>2019-09-17T15:03:31Z</time>
      </trkpt>
      <trkpt lat="43.60529" lon="6.56296">
        <ele>384</ele>
        <time>2019-09-17T15:03:55Z</time>
      </trkpt>
      <trkpt lat="43.60525" lon="6.56301">
        <ele>383.8</ele>
        <time>2019-09-17T15:03:58Z</time>
      </trkpt>
      <trkpt lat="43.60521" lon="6.56305">
        <ele>383.7</ele>
        <time>2019-09-17T15:04:01Z</time>
      </trkpt>
      <trkpt lat="43.60517" lon="6.5631">
        <ele>383.7</ele>
        <time>2019-09-17T15:04:04Z</time>
      </trkpt>
      <trkpt lat="43.60513" lon="6.56316">
        <ele>383.5</ele>
        <time>2019-09-17T15:04:09Z</time>
      </trkpt>
      <trkpt lat="43.6051" lon="6.56324">
        <ele>383.5</ele>
        <time>2019-09-17T15:04:12Z</time>
      </trkpt>
      <trkpt lat="43.60505" lon="6.56332">
        <ele>383.7</ele>
        <time>2019-09-17T15:04:14Z</time>
      </trkpt>
      <trkpt lat="43.60502" lon="6.56337">
        <ele>384.1</ele>
        <time>2019-09-17T15:04:16Z</time>
      </trkpt>
      <trkpt lat="43.60492" lon="6.56349">
        <ele>385.7</ele>
        <time>2019-09-17T15:04:26Z</time>
      </trkpt>
      <trkpt lat="43.60488" lon="6.56354">
        <ele>386.1</ele>
        <time>2019-09-17T15:04:33Z</time>
      </trkpt>
      <trkpt lat="43.60484" lon="6.56359">
        <ele>387.5</ele>
        <time>2019-09-17T15:04:42Z</time>
      </trkpt>
      <trkpt lat="43.60479" lon="6.5636">
        <ele>387.5</ele>
        <time>2019-09-17T15:04:46Z</time>
      </trkpt>
      <trkpt lat="43.60475" lon="6.56366">
        <ele>388</ele>
        <time>2019-09-17T15:04:50Z</time>
      </trkpt>
      <trkpt lat="43.60474" lon="6.56373">
        <ele>387.5</ele>
        <time>2019-09-17T15:04:56Z</time>
      </trkpt>
      <trkpt lat="43.6047" lon="6.56378">
        <ele>388.1</ele>
        <time>2019-09-17T15:05:02Z</time>
      </trkpt>
      <trkpt lat="43.60467" lon="6.56383">
        <ele>389.1</ele>
        <time>2019-09-17T15:05:16Z</time>
      </trkpt>
      <trkpt lat="43.60463" lon="6.5639">
        <ele>388.7</ele>
        <time>2019-09-17T15:05:19Z</time>
      </trkpt>
      <trkpt lat="43.60459" lon="6.56395">
        <ele>389.2</ele>
        <time>2019-09-17T15:05:23Z</time>
      </trkpt>
      <trkpt lat="43.60456" lon="6.56402">
        <ele>389.5</ele>
        <time>2019-09-17T15:05:27Z</time>
      </trkpt>
      <trkpt lat="43.60452" lon="6.56406">
        <ele>388.6</ele>
        <time>2019-09-17T15:05:31Z</time>
      </trkpt>
      <trkpt lat="43.60448" lon="6.56411">
        <ele>389</ele>
        <time>2019-09-17T15:05:36Z</time>
      </trkpt>
      <trkpt lat="43.60445" lon="6.56416">
        <ele>389.3</ele>
        <time>2019-09-17T15:05:53Z</time>
      </trkpt>
      <trkpt lat="43.60442" lon="6.56421">
        <ele>387.3</ele>
        <time>2019-09-17T15:05:56Z</time>
      </trkpt>
      <trkpt lat="43.60437" lon="6.56425">
        <ele>387.1</ele>
        <time>2019-09-17T15:05:58Z</time>
      </trkpt>
      <trkpt lat="43.60435" lon="6.56433">
        <ele>386.3</ele>
        <time>2019-09-17T15:06:01Z</time>
      </trkpt>
      <trkpt lat="43.60431" lon="6.56439">
        <ele>386.7</ele>
        <time>2019-09-17T15:06:04Z</time>
      </trkpt>
      <trkpt lat="43.60427" lon="6.56442">
        <ele>387.6</ele>
        <time>2019-09-17T15:06:08Z</time>
      </trkpt>
      <trkpt lat="43.60423" lon="6.56446">
        <ele>388.4</ele>
        <time>2019-09-17T15:06:13Z</time>
      </trkpt>
      <trkpt lat="43.60418" lon="6.5645">
        <ele>389.6</ele>
        <time>2019-09-17T15:06:23Z</time>
      </trkpt>
      <trkpt lat="43.60414" lon="6.56455">
        <ele>390.4</ele>
        <time>2019-09-17T15:06:26Z</time>
      </trkpt>
      <trkpt lat="43.60411" lon="6.5646">
        <ele>391.2</ele>
        <time>2019-09-17T15:06:29Z</time>
      </trkpt>
      <trkpt lat="43.60407" lon="6.56464">
        <ele>391.5</ele>
        <time>2019-09-17T15:06:33Z</time>
      </trkpt>
      <trkpt lat="43.60403" lon="6.56467">
        <ele>391.8</ele>
        <time>2019-09-17T15:06:38Z</time>
      </trkpt>
      <trkpt lat="43.60398" lon="6.56471">
        <ele>392.8</ele>
        <time>2019-09-17T15:07:03Z</time>
      </trkpt>
      <trkpt lat="43.60393" lon="6.56475">
        <ele>393.2</ele>
        <time>2019-09-17T15:07:06Z</time>
      </trkpt>
      <trkpt lat="43.60388" lon="6.56478">
        <ele>393.6</ele>
        <time>2019-09-17T15:07:10Z</time>
      </trkpt>
      <trkpt lat="43.60382" lon="6.56482">
        <ele>393.9</ele>
        <time>2019-09-17T15:07:15Z</time>
      </trkpt>
      <trkpt lat="43.60377" lon="6.56485">
        <ele>394.3</ele>
        <time>2019-09-17T15:07:18Z</time>
      </trkpt>
      <trkpt lat="43.60373" lon="6.56487">
        <ele>394.8</ele>
        <time>2019-09-17T15:07:21Z</time>
      </trkpt>
      <trkpt lat="43.60367" lon="6.56489">
        <ele>395.2</ele>
        <time>2019-09-17T15:07:24Z</time>
      </trkpt>
      <trkpt lat="43.60363" lon="6.5649">
        <ele>395.6</ele>
        <time>2019-09-17T15:07:28Z</time>
      </trkpt>
      <trkpt lat="43.60356" lon="6.56492">
        <ele>395.7</ele>
        <time>2019-09-17T15:07:33Z</time>
      </trkpt>
      <trkpt lat="43.60352" lon="6.56496">
        <ele>395.7</ele>
        <time>2019-09-17T15:07:36Z</time>
      </trkpt>
      <trkpt lat="43.60348" lon="6.56498">
        <ele>395.5</ele>
        <time>2019-09-17T15:07:40Z</time>
      </trkpt>
      <trkpt lat="43.60343" lon="6.56502">
        <ele>395.4</ele>
        <time>2019-09-17T15:07:45Z</time>
      </trkpt>
      <trkpt lat="43.60339" lon="6.56504">
        <ele>395</ele>
        <time>2019-09-17T15:07:50Z</time>
      </trkpt>
      <trkpt lat="43.60333" lon="6.56506">
        <ele>395.2</ele>
        <time>2019-09-17T15:07:54Z</time>
      </trkpt>
      <trkpt lat="43.60328" lon="6.56508">
        <ele>395</ele>
        <time>2019-09-17T15:07:59Z</time>
      </trkpt>
      <trkpt lat="43.60323" lon="6.56511">
        <ele>395.2</ele>
        <time>2019-09-17T15:08:04Z</time>
      </trkpt>
      <trkpt lat="43.60319" lon="6.56513">
        <ele>395.9</ele>
        <time>2019-09-17T15:08:09Z</time>
      </trkpt>
      <trkpt lat="43.60314" lon="6.56515">
        <ele>396.4</ele>
        <time>2019-09-17T15:08:13Z</time>
      </trkpt>
      <trkpt lat="43.6031" lon="6.56518">
        <ele>396.6</ele>
        <time>2019-09-17T15:08:17Z</time>
      </trkpt>
      <trkpt lat="43.60305" lon="6.56521">
        <ele>396.9</ele>
        <time>2019-09-17T15:08:22Z</time>
      </trkpt>
      <trkpt lat="43.603" lon="6.56524">
        <ele>397.3</ele>
        <time>2019-09-17T15:08:27Z</time>
      </trkpt>
      <trkpt lat="43.60295" lon="6.56527">
        <ele>397.5</ele>
        <time>2019-09-17T15:08:31Z</time>
      </trkpt>
      <trkpt lat="43.60291" lon="6.56532">
        <ele>397.6</ele>
        <time>2019-09-17T15:08:36Z</time>
      </trkpt>
      <trkpt lat="43.60287" lon="6.56535">
        <ele>397.4</ele>
        <time>2019-09-17T15:08:41Z</time>
      </trkpt>
      <trkpt lat="43.60282" lon="6.56538">
        <ele>397.1</ele>
        <time>2019-09-17T15:08:46Z</time>
      </trkpt>
      <trkpt lat="43.60278" lon="6.56541">
        <ele>398</ele>
        <time>2019-09-17T15:08:52Z</time>
      </trkpt>
      <trkpt lat="43.60273" lon="6.56544">
        <ele>398.9</ele>
        <time>2019-09-17T15:08:58Z</time>
      </trkpt>
      <trkpt lat="43.60269" lon="6.56548">
        <ele>400</ele>
        <time>2019-09-17T15:09:05Z</time>
      </trkpt>
      <trkpt lat="43.60264" lon="6.56551">
        <ele>399.9</ele>
        <time>2019-09-17T15:09:26Z</time>
      </trkpt>
      <trkpt lat="43.60261" lon="6.56554">
        <ele>394.7</ele>
        <time>2019-09-17T15:14:46Z</time>
      </trkpt>
      <trkpt lat="43.60257" lon="6.56559">
        <ele>398.3</ele>
        <time>2019-09-17T15:15:24Z</time>
      </trkpt>
      <trkpt lat="43.60252" lon="6.56563">
        <ele>396.6</ele>
        <time>2019-09-17T15:15:30Z</time>
      </trkpt>
      <trkpt lat="43.60248" lon="6.56565">
        <ele>394.7</ele>
        <time>2019-09-17T15:15:35Z</time>
      </trkpt>
      <trkpt lat="43.60238" lon="6.56559">
        <ele>404.4</ele>
        <time>2019-09-17T15:15:56Z</time>
      </trkpt>
      <trkpt lat="43.60234" lon="6.56554">
        <ele>404.9</ele>
        <time>2019-09-17T15:16:00Z</time>
      </trkpt>
      <trkpt lat="43.60232" lon="6.56547">
        <ele>405</ele>
        <time>2019-09-17T15:16:05Z</time>
      </trkpt>
      <trkpt lat="43.60232" lon="6.5654">
        <ele>405.7</ele>
        <time>2019-09-17T15:16:10Z</time>
      </trkpt>
      <trkpt lat="43.60231" lon="6.56532">
        <ele>405.8</ele>
        <time>2019-09-17T15:16:15Z</time>
      </trkpt>
      <trkpt lat="43.60229" lon="6.56525">
        <ele>405.7</ele>
        <time>2019-09-17T15:16:20Z</time>
      </trkpt>
      <trkpt lat="43.60226" lon="6.56518">
        <ele>405.5</ele>
        <time>2019-09-17T15:16:25Z</time>
      </trkpt>
      <trkpt lat="43.60222" lon="6.56513">
        <ele>405.9</ele>
        <time>2019-09-17T15:16:29Z</time>
      </trkpt>
      <trkpt lat="43.60219" lon="6.56509">
        <ele>406</ele>
        <time>2019-09-17T15:16:33Z</time>
      </trkpt>
      <trkpt lat="43.60214" lon="6.56506">
        <ele>407</ele>
        <time>2019-09-17T15:16:39Z</time>
      </trkpt>
      <trkpt lat="43.60209" lon="6.56507">
        <ele>407</ele>
        <time>2019-09-17T15:16:44Z</time>
      </trkpt>
      <trkpt lat="43.60206" lon="6.56501">
        <ele>407.3</ele>
        <time>2019-09-17T15:16:50Z</time>
      </trkpt>
      <trkpt lat="43.60206" lon="6.56495">
        <ele>407.2</ele>
        <time>2019-09-17T15:16:55Z</time>
      </trkpt>
      <trkpt lat="43.60205" lon="6.56488">
        <ele>407</ele>
        <time>2019-09-17T15:17:00Z</time>
      </trkpt>
      <trkpt lat="43.60203" lon="6.56482">
        <ele>406.9</ele>
        <time>2019-09-17T15:17:05Z</time>
      </trkpt>
      <trkpt lat="43.60202" lon="6.56476">
        <ele>406.8</ele>
        <time>2019-09-17T15:17:10Z</time>
      </trkpt>
      <trkpt lat="43.60201" lon="6.56469">
        <ele>406.8</ele>
        <time>2019-09-17T15:17:15Z</time>
      </trkpt>
      <trkpt lat="43.60201" lon="6.56463">
        <ele>406.4</ele>
        <time>2019-09-17T15:17:19Z</time>
      </trkpt>
      <trkpt lat="43.60197" lon="6.56457">
        <ele>404.8</ele>
        <time>2019-09-17T15:17:23Z</time>
      </trkpt>
      <trkpt lat="43.60193" lon="6.56453">
        <ele>405.1</ele>
        <time>2019-09-17T15:17:26Z</time>
      </trkpt>
      <trkpt lat="43.6019" lon="6.56448">
        <ele>403.4</ele>
        <time>2019-09-17T15:17:29Z</time>
      </trkpt>
      <trkpt lat="43.60188" lon="6.56442">
        <ele>400.8</ele>
        <time>2019-09-17T15:17:34Z</time>
      </trkpt>
      <trkpt lat="43.60187" lon="6.56436">
        <ele>399.8</ele>
        <time>2019-09-17T15:17:39Z</time>
      </trkpt>
      <trkpt lat="43.60186" lon="6.56429">
        <ele>399.8</ele>
        <time>2019-09-17T15:17:45Z</time>
      </trkpt>
      <trkpt lat="43.60185" lon="6.56422">
        <ele>401.1</ele>
        <time>2019-09-17T15:17:54Z</time>
      </trkpt>
      <trkpt lat="43.60185" lon="6.56415">
        <ele>401</ele>
        <time>2019-09-17T15:18:00Z</time>
      </trkpt>
      <trkpt lat="43.60186" lon="6.56409">
        <ele>401.2</ele>
        <time>2019-09-17T15:18:04Z</time>
      </trkpt>
      <trkpt lat="43.60187" lon="6.56402">
        <ele>402</ele>
        <time>2019-09-17T15:18:08Z</time>
      </trkpt>
      <trkpt lat="43.60186" lon="6.56394">
        <ele>401.4</ele>
        <time>2019-09-17T15:18:12Z</time>
      </trkpt>
      <trkpt lat="43.60184" lon="6.56388">
        <ele>400.3</ele>
        <time>2019-09-17T15:18:14Z</time>
      </trkpt>
      <trkpt lat="43.60182" lon="6.56381">
        <ele>400.5</ele>
        <time>2019-09-17T15:18:17Z</time>
      </trkpt>
      <trkpt lat="43.6018" lon="6.56375">
        <ele>401.1</ele>
        <time>2019-09-17T15:18:23Z</time>
      </trkpt>
      <trkpt lat="43.6018" lon="6.56369">
        <ele>402.6</ele>
        <time>2019-09-17T15:18:29Z</time>
      </trkpt>
      <trkpt lat="43.60179" lon="6.56362">
        <ele>404.2</ele>
        <time>2019-09-17T15:18:34Z</time>
      </trkpt>
      <trkpt lat="43.60182" lon="6.56353">
        <ele>403.9</ele>
        <time>2019-09-17T15:18:39Z</time>
      </trkpt>
      <trkpt lat="43.60184" lon="6.56345">
        <ele>403.4</ele>
        <time>2019-09-17T15:18:42Z</time>
      </trkpt>
      <trkpt lat="43.60184" lon="6.56338">
        <ele>400.2</ele>
        <time>2019-09-17T15:18:47Z</time>
      </trkpt>
      <trkpt lat="43.60186" lon="6.56332">
        <ele>398.5</ele>
        <time>2019-09-17T15:18:52Z</time>
      </trkpt>
      <trkpt lat="43.60184" lon="6.56326">
        <ele>398.6</ele>
        <time>2019-09-17T15:18:58Z</time>
      </trkpt>
      <trkpt lat="43.60182" lon="6.5632">
        <ele>399.8</ele>
        <time>2019-09-17T15:19:08Z</time>
      </trkpt>
      <trkpt lat="43.60181" lon="6.56314">
        <ele>400.5</ele>
        <time>2019-09-17T15:19:12Z</time>
      </trkpt>
      <trkpt lat="43.6018" lon="6.56307">
        <ele>401.1</ele>
        <time>2019-09-17T15:19:16Z</time>
      </trkpt>
      <trkpt lat="43.60179" lon="6.56301">
        <ele>401.4</ele>
        <time>2019-09-17T15:19:20Z</time>
      </trkpt>
      <trkpt lat="43.60177" lon="6.56294">
        <ele>401.9</ele>
        <time>2019-09-17T15:19:27Z</time>
      </trkpt>
      <trkpt lat="43.60175" lon="6.56289">
        <ele>402.3</ele>
        <time>2019-09-17T15:19:30Z</time>
      </trkpt>
      <trkpt lat="43.60173" lon="6.56282">
        <ele>401.9</ele>
        <time>2019-09-17T15:19:34Z</time>
      </trkpt>
      <trkpt lat="43.60171" lon="6.56276">
        <ele>401.9</ele>
        <time>2019-09-17T15:19:37Z</time>
      </trkpt>
      <trkpt lat="43.6017" lon="6.56269">
        <ele>402.7</ele>
        <time>2019-09-17T15:19:41Z</time>
      </trkpt>
      <trkpt lat="43.60167" lon="6.56264">
        <ele>404.3</ele>
        <time>2019-09-17T15:19:49Z</time>
      </trkpt>
      <trkpt lat="43.60165" lon="6.56258">
        <ele>405.5</ele>
        <time>2019-09-17T15:19:56Z</time>
      </trkpt>
      <trkpt lat="43.6016" lon="6.56256">
        <ele>405.7</ele>
        <time>2019-09-17T15:20:04Z</time>
      </trkpt>
      <trkpt lat="43.60157" lon="6.56261">
        <ele>405.5</ele>
        <time>2019-09-17T15:22:43Z</time>
      </trkpt>
      <trkpt lat="43.6016" lon="6.56256">
        <ele>400.1</ele>
        <time>2019-09-17T15:24:14Z</time>
      </trkpt>
      <trkpt lat="43.60163" lon="6.56251">
        <ele>402.3</ele>
        <time>2019-09-17T15:24:45Z</time>
      </trkpt>
      <trkpt lat="43.60164" lon="6.56245">
        <ele>401.8</ele>
        <time>2019-09-17T15:24:53Z</time>
      </trkpt>
      <trkpt lat="43.60166" lon="6.56238">
        <ele>401</ele>
        <time>2019-09-17T15:24:57Z</time>
      </trkpt>
      <trkpt lat="43.60169" lon="6.56234">
        <ele>399.8</ele>
        <time>2019-09-17T15:25:03Z</time>
      </trkpt>
      <trkpt lat="43.60173" lon="6.56231">
        <ele>399.5</ele>
        <time>2019-09-17T15:25:08Z</time>
      </trkpt>
      <trkpt lat="43.60178" lon="6.56233">
        <ele>391.5</ele>
        <time>2019-09-17T15:25:35Z</time>
      </trkpt>
      <trkpt lat="43.60179" lon="6.56227">
        <ele>387.6</ele>
        <time>2019-09-17T15:26:11Z</time>
      </trkpt>
    </trkseg>
  </trk>
</gpx>